﻿<?xml version="1.0" encoding="UTF-8" standalone="no" ?>
<gpx xmlns="http://www.topografix.com/GPX/1/1" creator="CompeGPS" version="1.1" xmlns:xsi="http://www.w3.org/2001/XMLSchema-instance" xsi:schemaLocation="http://www.topografix.com/GPX/1/1 http://www.topografix.com/GPX/1/1/gpx.xsd http://www.garmin.com/xmlschemas/GpxExtensions/v3 http://www.garmin.com/xmlschemas/GpxExtensionsv3.xsd http://www.garmin.com/xmlschemas/TrackPointExtension/v1 http://www.garmin.com/xmlschemas/TrackPointExtensionv1.xsd" xmlns:gpxtpx="http://www.garmin.com/xmlschemas/TrackPointExtension/v1">
  <metadata>
    <link href="http://www.compegps.com">
      <text>CompeGPS TEAM, SL</text>
    </link>
    <time>2013-05-30T14:01:10Z</time>
    <bounds maxlat="42.721408" maxlon="0.682649" minlat="42.690683" minlon="0.653905"/>
  </metadata>
<wpt lat="42.721394" lon="0.653905">
  <ele>1385</ele>
  <name>Hospice de France</name>
</wpt>
<wpt lat="42.718218" lon="0.658745">
  <ele>1435</ele>
  <name>Bif. fontaine rouge</name>
</wpt>
<wpt lat="42.718374" lon="0.665679">
  <ele>1730</ele>
  <name>Plateau de Campsaure</name>
</wpt>
<wpt lat="42.717454" lon="0.673905">
  <ele>1825</ele>
  <name>Col frontalier</name>
</wpt>
<wpt lat="42.709004" lon="0.682491">
  <ele>2162</ele>
  <name>Pic de Roye</name>
</wpt>
<wpt lat="42.703424" lon="0.677628">
  <ele>2069</ele>
  <name>Pas de la Mounjoye</name>
</wpt>
<wpt lat="42.690682" lon="0.676406">
  <ele>2466</ele>
  <name>Soum de l Escalette</name>
</wpt>
  <trk>
    <name>Soum de l Escalette</name>
    <trkseg>
      <trkpt lat="42.721394" lon="0.653905">
        <ele>1367.1</ele>
        <time>2013-05-26T07:07:28Z</time>
        <name>Hospice de France</name>
      </trkpt>
      <trkpt lat="42.721351" lon="0.653968">
        <ele>1370.0</ele>
        <time>2013-05-26T07:09:23Z</time>
      </trkpt>
      <trkpt lat="42.721336" lon="0.654080">
        <ele>1371.0</ele>
        <time>2013-05-26T07:09:33Z</time>
      </trkpt>
      <trkpt lat="42.721283" lon="0.654204">
        <ele>1372.9</ele>
        <time>2013-05-26T07:09:44Z</time>
      </trkpt>
      <trkpt lat="42.721201" lon="0.654301">
        <ele>1374.8</ele>
        <time>2013-05-26T07:09:55Z</time>
      </trkpt>
      <trkpt lat="42.721122" lon="0.654385">
        <ele>1376.3</ele>
        <time>2013-05-26T07:10:05Z</time>
      </trkpt>
      <trkpt lat="42.721063" lon="0.654492">
        <ele>1378.2</ele>
        <time>2013-05-26T07:10:15Z</time>
      </trkpt>
      <trkpt lat="42.721025" lon="0.654613">
        <ele>1380.1</ele>
        <time>2013-05-26T07:10:24Z</time>
      </trkpt>
      <trkpt lat="42.721003" lon="0.654737">
        <ele>1380.6</ele>
        <time>2013-05-26T07:10:33Z</time>
      </trkpt>
      <trkpt lat="42.720982" lon="0.654863">
        <ele>1380.6</ele>
        <time>2013-05-26T07:10:41Z</time>
      </trkpt>
      <trkpt lat="42.720949" lon="0.654986">
        <ele>1380.6</ele>
        <time>2013-05-26T07:10:50Z</time>
      </trkpt>
      <trkpt lat="42.720926" lon="0.655110">
        <ele>1381.1</ele>
        <time>2013-05-26T07:10:58Z</time>
      </trkpt>
      <trkpt lat="42.720874" lon="0.655225">
        <ele>1381.1</ele>
        <time>2013-05-26T07:11:06Z</time>
      </trkpt>
      <trkpt lat="42.720796" lon="0.655353">
        <ele>1381.6</ele>
        <time>2013-05-26T07:11:16Z</time>
      </trkpt>
      <trkpt lat="42.720722" lon="0.655451">
        <ele>1382.5</ele>
        <time>2013-05-26T07:11:24Z</time>
      </trkpt>
      <trkpt lat="42.720649" lon="0.655567">
        <ele>1384.0</ele>
        <time>2013-05-26T07:11:33Z</time>
      </trkpt>
      <trkpt lat="42.720587" lon="0.655665">
        <ele>1384.4</ele>
        <time>2013-05-26T07:11:41Z</time>
      </trkpt>
      <trkpt lat="42.720549" lon="0.655758">
        <ele>1385.4</ele>
        <time>2013-05-26T07:11:51Z</time>
      </trkpt>
      <trkpt lat="42.720506" lon="0.655885">
        <ele>1387.3</ele>
        <time>2013-05-26T07:12:02Z</time>
      </trkpt>
      <trkpt lat="42.720441" lon="0.655998">
        <ele>1389.2</ele>
        <time>2013-05-26T07:12:11Z</time>
      </trkpt>
      <trkpt lat="42.720373" lon="0.656119">
        <ele>1389.7</ele>
        <time>2013-05-26T07:12:21Z</time>
      </trkpt>
      <trkpt lat="42.720317" lon="0.656229">
        <ele>1391.2</ele>
        <time>2013-05-26T07:12:30Z</time>
      </trkpt>
      <trkpt lat="42.720254" lon="0.656329">
        <ele>1392.6</ele>
        <time>2013-05-26T07:12:40Z</time>
      </trkpt>
      <trkpt lat="42.720213" lon="0.656446">
        <ele>1393.6</ele>
        <time>2013-05-26T07:12:51Z</time>
      </trkpt>
      <trkpt lat="42.720153" lon="0.656581">
        <ele>1395.0</ele>
        <time>2013-05-26T07:13:01Z</time>
      </trkpt>
      <trkpt lat="42.720062" lon="0.656697">
        <ele>1396.0</ele>
        <time>2013-05-26T07:13:12Z</time>
      </trkpt>
      <trkpt lat="42.720022" lon="0.656811">
        <ele>1397.9</ele>
        <time>2013-05-26T07:13:22Z</time>
      </trkpt>
      <trkpt lat="42.720017" lon="0.656943">
        <ele>1398.9</ele>
        <time>2013-05-26T07:13:32Z</time>
      </trkpt>
      <trkpt lat="42.719992" lon="0.657097">
        <ele>1400.3</ele>
        <time>2013-05-26T07:13:44Z</time>
      </trkpt>
      <trkpt lat="42.719922" lon="0.657258">
        <ele>1401.7</ele>
        <time>2013-05-26T07:13:57Z</time>
      </trkpt>
      <trkpt lat="42.719862" lon="0.657388">
        <ele>1403.7</ele>
        <time>2013-05-26T07:14:10Z</time>
      </trkpt>
      <trkpt lat="42.719728" lon="0.657496">
        <ele>1406.1</ele>
        <time>2013-05-26T07:14:25Z</time>
      </trkpt>
      <trkpt lat="42.719586" lon="0.657619">
        <ele>1408.5</ele>
        <time>2013-05-26T07:14:40Z</time>
      </trkpt>
      <trkpt lat="42.719486" lon="0.657714">
        <ele>1410.4</ele>
        <time>2013-05-26T07:14:53Z</time>
      </trkpt>
      <trkpt lat="42.719394" lon="0.657861">
        <ele>1412.8</ele>
        <time>2013-05-26T07:15:06Z</time>
      </trkpt>
      <trkpt lat="42.719296" lon="0.657976">
        <ele>1414.7</ele>
        <time>2013-05-26T07:15:18Z</time>
      </trkpt>
      <trkpt lat="42.719212" lon="0.658098">
        <ele>1416.6</ele>
        <time>2013-05-26T07:15:32Z</time>
      </trkpt>
      <trkpt lat="42.719093" lon="0.658186">
        <ele>1419.0</ele>
        <time>2013-05-26T07:15:46Z</time>
      </trkpt>
      <trkpt lat="42.718934" lon="0.658320">
        <ele>1420.0</ele>
        <time>2013-05-26T07:16:06Z</time>
      </trkpt>
      <trkpt lat="42.718833" lon="0.658410">
        <ele>1420.5</ele>
        <time>2013-05-26T07:16:25Z</time>
      </trkpt>
      <trkpt lat="42.718644" lon="0.658355">
        <ele>1422.9</ele>
        <time>2013-05-26T07:16:40Z</time>
      </trkpt>
      <trkpt lat="42.718497" lon="0.658424">
        <ele>1424.8</ele>
        <time>2013-05-26T07:16:55Z</time>
      </trkpt>
      <trkpt lat="42.718343" lon="0.658517">
        <ele>1427.7</ele>
        <time>2013-05-26T07:17:12Z</time>
      </trkpt>
      <trkpt lat="42.718197" lon="0.658623">
        <ele>1430.1</ele>
        <time>2013-05-26T07:17:26Z</time>
      </trkpt>
      <trkpt lat="42.718218" lon="0.658745">
        <ele>1432.5</ele>
        <time>2013-05-26T07:17:40Z</time>
        <name>Bif. fontaine rouge</name>
      </trkpt>
      <trkpt lat="42.718343" lon="0.658726">
        <ele>1433.9</ele>
        <time>2013-05-26T07:17:52Z</time>
      </trkpt>
      <trkpt lat="42.718361" lon="0.658864">
        <ele>1437.8</ele>
        <time>2013-05-26T07:18:08Z</time>
      </trkpt>
      <trkpt lat="42.718384" lon="0.658998">
        <ele>1441.2</ele>
        <time>2013-05-26T07:18:27Z</time>
      </trkpt>
      <trkpt lat="42.718321" lon="0.659096">
        <ele>1442.1</ele>
        <time>2013-05-26T07:18:41Z</time>
      </trkpt>
      <trkpt lat="42.718237" lon="0.659254">
        <ele>1445.5</ele>
        <time>2013-05-26T07:19:00Z</time>
      </trkpt>
      <trkpt lat="42.718188" lon="0.659415">
        <ele>1446.9</ele>
        <time>2013-05-26T07:19:16Z</time>
      </trkpt>
      <trkpt lat="42.718137" lon="0.659547">
        <ele>1448.8</ele>
        <time>2013-05-26T07:19:29Z</time>
      </trkpt>
      <trkpt lat="42.718088" lon="0.659611">
        <ele>1451.7</ele>
        <time>2013-05-26T07:19:49Z</time>
      </trkpt>
      <trkpt lat="42.718225" lon="0.659541">
        <ele>1456.1</ele>
        <time>2013-05-26T07:20:08Z</time>
      </trkpt>
      <trkpt lat="42.718359" lon="0.659461">
        <ele>1457.0</ele>
        <time>2013-05-26T07:20:20Z</time>
      </trkpt>
      <trkpt lat="42.718477" lon="0.659418">
        <ele>1458.5</ele>
        <time>2013-05-26T07:20:32Z</time>
      </trkpt>
      <trkpt lat="42.718580" lon="0.659425">
        <ele>1460.9</ele>
        <time>2013-05-26T07:20:45Z</time>
      </trkpt>
      <trkpt lat="42.718667" lon="0.659542">
        <ele>1465.7</ele>
        <time>2013-05-26T07:21:05Z</time>
      </trkpt>
      <trkpt lat="42.718679" lon="0.659668">
        <ele>1468.6</ele>
        <time>2013-05-26T07:21:27Z</time>
      </trkpt>
      <trkpt lat="42.718678" lon="0.659763">
        <ele>1473.8</ele>
        <time>2013-05-26T07:21:44Z</time>
      </trkpt>
      <trkpt lat="42.718656" lon="0.659923">
        <ele>1479.6</ele>
        <time>2013-05-26T07:22:15Z</time>
      </trkpt>
      <trkpt lat="42.718561" lon="0.660201">
        <ele>1483.4</ele>
        <time>2013-05-26T07:22:47Z</time>
      </trkpt>
      <trkpt lat="42.718471" lon="0.660401">
        <ele>1487.8</ele>
        <time>2013-05-26T07:23:13Z</time>
      </trkpt>
      <trkpt lat="42.718387" lon="0.660598">
        <ele>1491.1</ele>
        <time>2013-05-26T07:23:35Z</time>
      </trkpt>
      <trkpt lat="42.718281" lon="0.660858">
        <ele>1495.5</ele>
        <time>2013-05-26T07:24:02Z</time>
      </trkpt>
      <trkpt lat="42.718260" lon="0.661058">
        <ele>1498.3</ele>
        <time>2013-05-26T07:24:20Z</time>
      </trkpt>
      <trkpt lat="42.718142" lon="0.661314">
        <ele>1504.1</ele>
        <time>2013-05-26T07:24:51Z</time>
      </trkpt>
      <trkpt lat="42.718071" lon="0.661623">
        <ele>1508.0</ele>
        <time>2013-05-26T07:25:16Z</time>
      </trkpt>
      <trkpt lat="42.717980" lon="0.661876">
        <ele>1510.4</ele>
        <time>2013-05-26T07:25:36Z</time>
      </trkpt>
      <trkpt lat="42.717881" lon="0.662031">
        <ele>1513.7</ele>
        <time>2013-05-26T07:25:58Z</time>
      </trkpt>
      <trkpt lat="42.717756" lon="0.662224">
        <ele>1518.1</ele>
        <time>2013-05-26T07:26:25Z</time>
      </trkpt>
      <trkpt lat="42.717663" lon="0.662463">
        <ele>1524.3</ele>
        <time>2013-05-26T07:26:58Z</time>
      </trkpt>
      <trkpt lat="42.717572" lon="0.662750">
        <ele>1529.6</ele>
        <time>2013-05-26T07:27:30Z</time>
      </trkpt>
      <trkpt lat="42.717535" lon="0.662988">
        <ele>1533.4</ele>
        <time>2013-05-26T07:27:56Z</time>
      </trkpt>
      <trkpt lat="42.717573" lon="0.662884">
        <ele>1536.8</ele>
        <time>2013-05-26T07:28:38Z</time>
      </trkpt>
      <trkpt lat="42.717695" lon="0.662789">
        <ele>1538.7</ele>
        <time>2013-05-26T07:29:03Z</time>
      </trkpt>
      <trkpt lat="42.717796" lon="0.662665">
        <ele>1538.7</ele>
        <time>2013-05-26T07:29:17Z</time>
      </trkpt>
      <trkpt lat="42.717833" lon="0.662553">
        <ele>1538.2</ele>
        <time>2013-05-26T07:29:50Z</time>
      </trkpt>
      <trkpt lat="42.717916" lon="0.662504">
        <ele>1540.2</ele>
        <time>2013-05-26T07:30:03Z</time>
      </trkpt>
      <trkpt lat="42.718002" lon="0.662472">
        <ele>1542.6</ele>
        <time>2013-05-26T07:30:20Z</time>
      </trkpt>
      <trkpt lat="42.718107" lon="0.662437">
        <ele>1543.1</ele>
        <time>2013-05-26T07:30:39Z</time>
      </trkpt>
      <trkpt lat="42.718253" lon="0.662294">
        <ele>1547.4</ele>
        <time>2013-05-26T07:30:59Z</time>
      </trkpt>
      <trkpt lat="42.718360" lon="0.662170">
        <ele>1549.3</ele>
        <time>2013-05-26T07:31:14Z</time>
      </trkpt>
      <trkpt lat="42.718468" lon="0.662028">
        <ele>1551.2</ele>
        <time>2013-05-26T07:31:30Z</time>
      </trkpt>
      <trkpt lat="42.718579" lon="0.661898">
        <ele>1554.1</ele>
        <time>2013-05-26T07:31:47Z</time>
      </trkpt>
      <trkpt lat="42.718672" lon="0.661748">
        <ele>1555.1</ele>
        <time>2013-05-26T07:32:00Z</time>
      </trkpt>
      <trkpt lat="42.718761" lon="0.661716">
        <ele>1557.0</ele>
        <time>2013-05-26T07:32:14Z</time>
      </trkpt>
      <trkpt lat="42.718845" lon="0.661676">
        <ele>1560.4</ele>
        <time>2013-05-26T07:32:30Z</time>
      </trkpt>
      <trkpt lat="42.718960" lon="0.661614">
        <ele>1562.8</ele>
        <time>2013-05-26T07:32:46Z</time>
      </trkpt>
      <trkpt lat="42.719058" lon="0.661571">
        <ele>1568.1</ele>
        <time>2013-05-26T07:33:07Z</time>
      </trkpt>
      <trkpt lat="42.719192" lon="0.661533">
        <ele>1571.4</ele>
        <time>2013-05-26T07:33:28Z</time>
      </trkpt>
      <trkpt lat="42.719350" lon="0.661493">
        <ele>1575.7</ele>
        <time>2013-05-26T07:33:47Z</time>
      </trkpt>
      <trkpt lat="42.719434" lon="0.661440">
        <ele>1578.1</ele>
        <time>2013-05-26T07:34:02Z</time>
      </trkpt>
      <trkpt lat="42.719446" lon="0.661501">
        <ele>1582.0</ele>
        <time>2013-05-26T07:34:21Z</time>
      </trkpt>
      <trkpt lat="42.719385" lon="0.661652">
        <ele>1583.9</ele>
        <time>2013-05-26T07:34:37Z</time>
      </trkpt>
      <trkpt lat="42.719337" lon="0.661754">
        <ele>1587.3</ele>
        <time>2013-05-26T07:34:51Z</time>
      </trkpt>
      <trkpt lat="42.719283" lon="0.661855">
        <ele>1589.7</ele>
        <time>2013-05-26T07:35:07Z</time>
      </trkpt>
      <trkpt lat="42.719215" lon="0.661959">
        <ele>1592.6</ele>
        <time>2013-05-26T07:35:23Z</time>
      </trkpt>
      <trkpt lat="42.719121" lon="0.662097">
        <ele>1602.2</ele>
        <time>2013-05-26T07:41:41Z</time>
      </trkpt>
      <trkpt lat="42.719292" lon="0.661974">
        <ele>1605.5</ele>
        <time>2013-05-26T07:42:06Z</time>
      </trkpt>
      <trkpt lat="42.719385" lon="0.661942">
        <ele>1607.9</ele>
        <time>2013-05-26T07:42:23Z</time>
      </trkpt>
      <trkpt lat="42.719489" lon="0.661885">
        <ele>1610.3</ele>
        <time>2013-05-26T07:42:35Z</time>
      </trkpt>
      <trkpt lat="42.719574" lon="0.661850">
        <ele>1612.8</ele>
        <time>2013-05-26T07:42:49Z</time>
      </trkpt>
      <trkpt lat="42.719684" lon="0.661932">
        <ele>1615.6</ele>
        <time>2013-05-26T07:43:08Z</time>
      </trkpt>
      <trkpt lat="42.719766" lon="0.661905">
        <ele>1616.6</ele>
        <time>2013-05-26T07:43:23Z</time>
      </trkpt>
      <trkpt lat="42.719857" lon="0.661919">
        <ele>1620.4</ele>
        <time>2013-05-26T07:43:37Z</time>
      </trkpt>
      <trkpt lat="42.719940" lon="0.661886">
        <ele>1624.8</ele>
        <time>2013-05-26T07:43:55Z</time>
      </trkpt>
      <trkpt lat="42.720032" lon="0.661829">
        <ele>1627.2</ele>
        <time>2013-05-26T07:44:12Z</time>
      </trkpt>
      <trkpt lat="42.720132" lon="0.661803">
        <ele>1630.5</ele>
        <time>2013-05-26T07:44:26Z</time>
      </trkpt>
      <trkpt lat="42.720158" lon="0.661952">
        <ele>1632.9</ele>
        <time>2013-05-26T07:44:58Z</time>
      </trkpt>
      <trkpt lat="42.720145" lon="0.662062">
        <ele>1635.8</ele>
        <time>2013-05-26T07:45:19Z</time>
      </trkpt>
      <trkpt lat="42.720132" lon="0.662198">
        <ele>1638.2</ele>
        <time>2013-05-26T07:45:30Z</time>
      </trkpt>
      <trkpt lat="42.720104" lon="0.662338">
        <ele>1640.6</ele>
        <time>2013-05-26T07:45:43Z</time>
      </trkpt>
      <trkpt lat="42.720064" lon="0.662420">
        <ele>1644.0</ele>
        <time>2013-05-26T07:45:55Z</time>
      </trkpt>
      <trkpt lat="42.719979" lon="0.662470">
        <ele>1646.4</ele>
        <time>2013-05-26T07:46:06Z</time>
      </trkpt>
      <trkpt lat="42.719914" lon="0.662556">
        <ele>1649.3</ele>
        <time>2013-05-26T07:46:21Z</time>
      </trkpt>
      <trkpt lat="42.719865" lon="0.662660">
        <ele>1651.7</ele>
        <time>2013-05-26T07:46:33Z</time>
      </trkpt>
      <trkpt lat="42.719854" lon="0.662787">
        <ele>1653.1</ele>
        <time>2013-05-26T07:46:44Z</time>
      </trkpt>
      <trkpt lat="42.719851" lon="0.662867">
        <ele>1654.1</ele>
        <time>2013-05-26T07:47:17Z</time>
      </trkpt>
      <trkpt lat="42.719836" lon="0.663007">
        <ele>1656.0</ele>
        <time>2013-05-26T07:47:27Z</time>
      </trkpt>
      <trkpt lat="42.719766" lon="0.663122">
        <ele>1657.4</ele>
        <time>2013-05-26T07:47:37Z</time>
      </trkpt>
      <trkpt lat="42.719675" lon="0.663239">
        <ele>1660.8</ele>
        <time>2013-05-26T07:47:52Z</time>
      </trkpt>
      <trkpt lat="42.719613" lon="0.663352">
        <ele>1663.2</ele>
        <time>2013-05-26T07:48:04Z</time>
      </trkpt>
      <trkpt lat="42.719544" lon="0.663480">
        <ele>1667.5</ele>
        <time>2013-05-26T07:48:20Z</time>
      </trkpt>
      <trkpt lat="42.719467" lon="0.663547">
        <ele>1670.9</ele>
        <time>2013-05-26T07:48:34Z</time>
      </trkpt>
      <trkpt lat="42.719410" lon="0.663671">
        <ele>1673.3</ele>
        <time>2013-05-26T07:48:47Z</time>
      </trkpt>
      <trkpt lat="42.719367" lon="0.663810">
        <ele>1674.8</ele>
        <time>2013-05-26T07:49:00Z</time>
      </trkpt>
      <trkpt lat="42.719306" lon="0.663934">
        <ele>1677.2</ele>
        <time>2013-05-26T07:49:14Z</time>
      </trkpt>
      <trkpt lat="42.719249" lon="0.664048">
        <ele>1680.5</ele>
        <time>2013-05-26T07:49:29Z</time>
      </trkpt>
      <trkpt lat="42.719142" lon="0.664108">
        <ele>1682.9</ele>
        <time>2013-05-26T07:49:42Z</time>
      </trkpt>
      <trkpt lat="42.719047" lon="0.664156">
        <ele>1685.3</ele>
        <time>2013-05-26T07:49:53Z</time>
      </trkpt>
      <trkpt lat="42.718990" lon="0.664285">
        <ele>1687.7</ele>
        <time>2013-05-26T07:50:07Z</time>
      </trkpt>
      <trkpt lat="42.718888" lon="0.664332">
        <ele>1690.1</ele>
        <time>2013-05-26T07:50:18Z</time>
      </trkpt>
      <trkpt lat="42.718796" lon="0.664360">
        <ele>1693.5</ele>
        <time>2013-05-26T07:50:34Z</time>
      </trkpt>
      <trkpt lat="42.718694" lon="0.664365">
        <ele>1697.3</ele>
        <time>2013-05-26T07:50:48Z</time>
      </trkpt>
      <trkpt lat="42.718646" lon="0.664448">
        <ele>1698.8</ele>
        <time>2013-05-26T07:51:02Z</time>
      </trkpt>
      <trkpt lat="42.718684" lon="0.664530">
        <ele>1702.2</ele>
        <time>2013-05-26T07:51:17Z</time>
      </trkpt>
      <trkpt lat="42.718608" lon="0.664608">
        <ele>1704.6</ele>
        <time>2013-05-26T07:51:32Z</time>
      </trkpt>
      <trkpt lat="42.718586" lon="0.664691">
        <ele>1707.4</ele>
        <time>2013-05-26T07:51:46Z</time>
      </trkpt>
      <trkpt lat="42.718614" lon="0.664796">
        <ele>1710.3</ele>
        <time>2013-05-26T07:52:00Z</time>
      </trkpt>
      <trkpt lat="42.718556" lon="0.664881">
        <ele>1713.2</ele>
        <time>2013-05-26T07:52:16Z</time>
      </trkpt>
      <trkpt lat="42.718571" lon="0.665016">
        <ele>1716.1</ele>
        <time>2013-05-26T07:52:30Z</time>
      </trkpt>
      <trkpt lat="42.718598" lon="0.665149">
        <ele>1717.1</ele>
        <time>2013-05-26T07:52:41Z</time>
      </trkpt>
      <trkpt lat="42.718552" lon="0.665285">
        <ele>1718.5</ele>
        <time>2013-05-26T07:52:53Z</time>
      </trkpt>
      <trkpt lat="42.718457" lon="0.665339">
        <ele>1719.9</ele>
        <time>2013-05-26T07:53:05Z</time>
      </trkpt>
      <trkpt lat="42.718409" lon="0.665459">
        <ele>1721.4</ele>
        <time>2013-05-26T07:53:14Z</time>
      </trkpt>
      <trkpt lat="42.718396" lon="0.665500">
        <ele>1720.4</ele>
        <time>2013-05-26T07:55:53Z</time>
      </trkpt>
      <trkpt lat="42.718373" lon="0.665600">
        <ele>1722.3</ele>
        <time>2013-05-26T07:57:39Z</time>
      </trkpt>
      <trkpt lat="42.718374" lon="0.665679">
        <ele>1723.3</ele>
        <time>2013-05-26T08:03:01Z</time>
        <name>Plateau de Campsaure</name>
      </trkpt>
      <trkpt lat="42.718327" lon="0.665800">
        <ele>1726.2</ele>
        <time>2013-05-26T08:03:14Z</time>
      </trkpt>
      <trkpt lat="42.718261" lon="0.665883">
        <ele>1728.1</ele>
        <time>2013-05-26T08:03:24Z</time>
      </trkpt>
      <trkpt lat="42.718255" lon="0.666012">
        <ele>1730.0</ele>
        <time>2013-05-26T08:03:35Z</time>
      </trkpt>
      <trkpt lat="42.718273" lon="0.666145">
        <ele>1731.0</ele>
        <time>2013-05-26T08:03:45Z</time>
      </trkpt>
      <trkpt lat="42.718303" lon="0.666271">
        <ele>1732.4</ele>
        <time>2013-05-26T08:03:54Z</time>
      </trkpt>
      <trkpt lat="42.718304" lon="0.666393">
        <ele>1733.4</ele>
        <time>2013-05-26T08:04:03Z</time>
      </trkpt>
      <trkpt lat="42.718293" lon="0.666531">
        <ele>1734.4</ele>
        <time>2013-05-26T08:04:13Z</time>
      </trkpt>
      <trkpt lat="42.718285" lon="0.666651">
        <ele>1735.8</ele>
        <time>2013-05-26T08:04:22Z</time>
      </trkpt>
      <trkpt lat="42.718278" lon="0.666777">
        <ele>1736.3</ele>
        <time>2013-05-26T08:04:31Z</time>
      </trkpt>
      <trkpt lat="42.718257" lon="0.666903">
        <ele>1737.7</ele>
        <time>2013-05-26T08:04:40Z</time>
      </trkpt>
      <trkpt lat="42.718275" lon="0.667022">
        <ele>1738.2</ele>
        <time>2013-05-26T08:04:49Z</time>
      </trkpt>
      <trkpt lat="42.718302" lon="0.667160">
        <ele>1739.2</ele>
        <time>2013-05-26T08:04:59Z</time>
      </trkpt>
      <trkpt lat="42.718328" lon="0.667291">
        <ele>1740.1</ele>
        <time>2013-05-26T08:05:10Z</time>
      </trkpt>
      <trkpt lat="42.718369" lon="0.667426">
        <ele>1741.6</ele>
        <time>2013-05-26T08:05:22Z</time>
      </trkpt>
      <trkpt lat="42.718395" lon="0.667553">
        <ele>1744.0</ele>
        <time>2013-05-26T08:05:33Z</time>
      </trkpt>
      <trkpt lat="42.718437" lon="0.667672">
        <ele>1745.9</ele>
        <time>2013-05-26T08:05:46Z</time>
      </trkpt>
      <trkpt lat="42.718475" lon="0.667802">
        <ele>1747.3</ele>
        <time>2013-05-26T08:05:57Z</time>
      </trkpt>
      <trkpt lat="42.718531" lon="0.667886">
        <ele>1748.8</ele>
        <time>2013-05-26T08:06:08Z</time>
      </trkpt>
      <trkpt lat="42.718554" lon="0.668016">
        <ele>1750.7</ele>
        <time>2013-05-26T08:06:19Z</time>
      </trkpt>
      <trkpt lat="42.718556" lon="0.668137">
        <ele>1752.1</ele>
        <time>2013-05-26T08:06:30Z</time>
      </trkpt>
      <trkpt lat="42.718557" lon="0.668255">
        <ele>1754.1</ele>
        <time>2013-05-26T08:06:40Z</time>
      </trkpt>
      <trkpt lat="42.718570" lon="0.668392">
        <ele>1755.0</ele>
        <time>2013-05-26T08:06:50Z</time>
      </trkpt>
      <trkpt lat="42.718569" lon="0.668524">
        <ele>1755.5</ele>
        <time>2013-05-26T08:07:20Z</time>
      </trkpt>
      <trkpt lat="42.718573" lon="0.668655">
        <ele>1756.5</ele>
        <time>2013-05-26T08:07:31Z</time>
      </trkpt>
      <trkpt lat="42.718569" lon="0.668785">
        <ele>1756.9</ele>
        <time>2013-05-26T08:07:42Z</time>
      </trkpt>
      <trkpt lat="42.718568" lon="0.668941">
        <ele>1758.4</ele>
        <time>2013-05-26T08:08:42Z</time>
      </trkpt>
      <trkpt lat="42.718563" lon="0.669058">
        <ele>1760.3</ele>
        <time>2013-05-26T08:08:54Z</time>
      </trkpt>
      <trkpt lat="42.718573" lon="0.669189">
        <ele>1761.3</ele>
        <time>2013-05-26T08:09:05Z</time>
      </trkpt>
      <trkpt lat="42.718589" lon="0.669331">
        <ele>1762.7</ele>
        <time>2013-05-26T08:09:16Z</time>
      </trkpt>
      <trkpt lat="42.718591" lon="0.669460">
        <ele>1764.2</ele>
        <time>2013-05-26T08:09:26Z</time>
      </trkpt>
      <trkpt lat="42.718587" lon="0.669592">
        <ele>1766.1</ele>
        <time>2013-05-26T08:09:36Z</time>
      </trkpt>
      <trkpt lat="42.718584" lon="0.669725">
        <ele>1767.5</ele>
        <time>2013-05-26T08:09:46Z</time>
      </trkpt>
      <trkpt lat="42.718570" lon="0.669852">
        <ele>1769.4</ele>
        <time>2013-05-26T08:09:57Z</time>
      </trkpt>
      <trkpt lat="42.718551" lon="0.669989">
        <ele>1771.4</ele>
        <time>2013-05-26T08:10:08Z</time>
      </trkpt>
      <trkpt lat="42.718533" lon="0.670122">
        <ele>1772.8</ele>
        <time>2013-05-26T08:10:19Z</time>
      </trkpt>
      <trkpt lat="42.718512" lon="0.670251">
        <ele>1773.8</ele>
        <time>2013-05-26T08:10:30Z</time>
      </trkpt>
      <trkpt lat="42.718529" lon="0.670376">
        <ele>1775.7</ele>
        <time>2013-05-26T08:10:39Z</time>
      </trkpt>
      <trkpt lat="42.718525" lon="0.670499">
        <ele>1778.1</ele>
        <time>2013-05-26T08:10:50Z</time>
      </trkpt>
      <trkpt lat="42.718497" lon="0.670629">
        <ele>1780.0</ele>
        <time>2013-05-26T08:11:00Z</time>
      </trkpt>
      <trkpt lat="42.718451" lon="0.670754">
        <ele>1782.9</ele>
        <time>2013-05-26T08:11:13Z</time>
      </trkpt>
      <trkpt lat="42.718387" lon="0.670884">
        <ele>1785.8</ele>
        <time>2013-05-26T08:11:34Z</time>
      </trkpt>
      <trkpt lat="42.718382" lon="0.671018">
        <ele>1787.7</ele>
        <time>2013-05-26T08:11:44Z</time>
      </trkpt>
      <trkpt lat="42.718357" lon="0.671136">
        <ele>1788.2</ele>
        <time>2013-05-26T08:11:53Z</time>
      </trkpt>
      <trkpt lat="42.718336" lon="0.671267">
        <ele>1789.2</ele>
        <time>2013-05-26T08:12:04Z</time>
      </trkpt>
      <trkpt lat="42.718324" lon="0.671401">
        <ele>1790.6</ele>
        <time>2013-05-26T08:12:16Z</time>
      </trkpt>
      <trkpt lat="42.718318" lon="0.671531">
        <ele>1792.0</ele>
        <time>2013-05-26T08:12:27Z</time>
      </trkpt>
      <trkpt lat="42.718240" lon="0.671625">
        <ele>1793.5</ele>
        <time>2013-05-26T08:13:14Z</time>
      </trkpt>
      <trkpt lat="42.718206" lon="0.671736">
        <ele>1794.0</ele>
        <time>2013-05-26T08:13:24Z</time>
      </trkpt>
      <trkpt lat="42.718180" lon="0.671850">
        <ele>1795.4</ele>
        <time>2013-05-26T08:13:34Z</time>
      </trkpt>
      <trkpt lat="42.718208" lon="0.671962">
        <ele>1794.9</ele>
        <time>2013-05-26T08:13:47Z</time>
      </trkpt>
      <trkpt lat="42.718189" lon="0.672111">
        <ele>1796.8</ele>
        <time>2013-05-26T08:13:59Z</time>
      </trkpt>
      <trkpt lat="42.718151" lon="0.672246">
        <ele>1797.8</ele>
        <time>2013-05-26T08:14:10Z</time>
      </trkpt>
      <trkpt lat="42.718122" lon="0.672376">
        <ele>1798.8</ele>
        <time>2013-05-26T08:14:21Z</time>
      </trkpt>
      <trkpt lat="42.718104" lon="0.672478">
        <ele>1799.7</ele>
        <time>2013-05-26T08:14:32Z</time>
      </trkpt>
      <trkpt lat="42.718018" lon="0.672586">
        <ele>1801.2</ele>
        <time>2013-05-26T08:14:53Z</time>
      </trkpt>
      <trkpt lat="42.717961" lon="0.672707">
        <ele>1801.7</ele>
        <time>2013-05-26T08:15:05Z</time>
      </trkpt>
      <trkpt lat="42.717914" lon="0.672823">
        <ele>1803.1</ele>
        <time>2013-05-26T08:15:16Z</time>
      </trkpt>
      <trkpt lat="42.717851" lon="0.672929">
        <ele>1804.5</ele>
        <time>2013-05-26T08:15:28Z</time>
      </trkpt>
      <trkpt lat="42.717819" lon="0.673083">
        <ele>1806.9</ele>
        <time>2013-05-26T08:15:43Z</time>
      </trkpt>
      <trkpt lat="42.717797" lon="0.673225">
        <ele>1809.3</ele>
        <time>2013-05-26T08:15:56Z</time>
      </trkpt>
      <trkpt lat="42.717753" lon="0.673340">
        <ele>1812.2</ele>
        <time>2013-05-26T08:16:11Z</time>
      </trkpt>
      <trkpt lat="42.717679" lon="0.673452">
        <ele>1815.1</ele>
        <time>2013-05-26T08:16:27Z</time>
      </trkpt>
      <trkpt lat="42.717621" lon="0.673567">
        <ele>1817.5</ele>
        <time>2013-05-26T08:16:43Z</time>
      </trkpt>
      <trkpt lat="42.717569" lon="0.673691">
        <ele>1818.9</ele>
        <time>2013-05-26T08:16:56Z</time>
      </trkpt>
      <trkpt lat="42.717513" lon="0.673802">
        <ele>1820.4</ele>
        <time>2013-05-26T08:17:07Z</time>
      </trkpt>
      <trkpt lat="42.717454" lon="0.673905">
        <ele>1821.8</ele>
        <time>2013-05-26T08:17:19Z</time>
        <name>Col frontalier</name>
      </trkpt>
      <trkpt lat="42.717403" lon="0.674018">
        <ele>1823.8</ele>
        <time>2013-05-26T08:17:30Z</time>
      </trkpt>
      <trkpt lat="42.717355" lon="0.674117">
        <ele>1825.7</ele>
        <time>2013-05-26T08:17:44Z</time>
      </trkpt>
      <trkpt lat="42.717300" lon="0.674195">
        <ele>1826.6</ele>
        <time>2013-05-26T08:17:57Z</time>
      </trkpt>
      <trkpt lat="42.717241" lon="0.674307">
        <ele>1830.0</ele>
        <time>2013-05-26T08:18:09Z</time>
      </trkpt>
      <trkpt lat="42.717177" lon="0.674381">
        <ele>1832.9</ele>
        <time>2013-05-26T08:18:22Z</time>
      </trkpt>
      <trkpt lat="42.717112" lon="0.674465">
        <ele>1824.7</ele>
        <time>2013-05-26T08:18:33Z</time>
      </trkpt>
      <trkpt lat="42.717055" lon="0.674558">
        <ele>1831.4</ele>
        <time>2013-05-26T08:18:45Z</time>
      </trkpt>
      <trkpt lat="42.716995" lon="0.674648">
        <ele>1832.4</ele>
        <time>2013-05-26T08:18:57Z</time>
      </trkpt>
      <trkpt lat="42.716942" lon="0.674752">
        <ele>1834.8</ele>
        <time>2013-05-26T08:19:11Z</time>
      </trkpt>
      <trkpt lat="42.716899" lon="0.674827">
        <ele>1836.7</ele>
        <time>2013-05-26T08:20:13Z</time>
      </trkpt>
      <trkpt lat="42.716871" lon="0.674760">
        <ele>1838.2</ele>
        <time>2013-05-26T08:22:10Z</time>
      </trkpt>
      <trkpt lat="42.716860" lon="0.674633">
        <ele>1840.1</ele>
        <time>2013-05-26T08:22:30Z</time>
      </trkpt>
      <trkpt lat="42.716824" lon="0.674481">
        <ele>1842.0</ele>
        <time>2013-05-26T08:23:03Z</time>
      </trkpt>
      <trkpt lat="42.716832" lon="0.674363">
        <ele>1843.5</ele>
        <time>2013-05-26T08:23:20Z</time>
      </trkpt>
      <trkpt lat="42.716812" lon="0.674242">
        <ele>1845.4</ele>
        <time>2013-05-26T08:23:36Z</time>
      </trkpt>
      <trkpt lat="42.716784" lon="0.674149">
        <ele>1849.2</ele>
        <time>2013-05-26T08:23:58Z</time>
      </trkpt>
      <trkpt lat="42.716717" lon="0.674089">
        <ele>1853.1</ele>
        <time>2013-05-26T08:24:20Z</time>
      </trkpt>
      <trkpt lat="42.716650" lon="0.674127">
        <ele>1855.0</ele>
        <time>2013-05-26T08:25:10Z</time>
      </trkpt>
      <trkpt lat="42.716600" lon="0.674194">
        <ele>1856.9</ele>
        <time>2013-05-26T08:25:26Z</time>
      </trkpt>
      <trkpt lat="42.716521" lon="0.674260">
        <ele>1859.3</ele>
        <time>2013-05-26T08:25:45Z</time>
      </trkpt>
      <trkpt lat="42.716468" lon="0.674351">
        <ele>1860.8</ele>
        <time>2013-05-26T08:26:03Z</time>
      </trkpt>
      <trkpt lat="42.716452" lon="0.674405">
        <ele>1859.3</ele>
        <time>2013-05-26T08:26:17Z</time>
      </trkpt>
      <trkpt lat="42.716351" lon="0.674442">
        <ele>1860.3</ele>
        <time>2013-05-26T08:26:33Z</time>
      </trkpt>
      <trkpt lat="42.716267" lon="0.674475">
        <ele>1862.7</ele>
        <time>2013-05-26T08:26:48Z</time>
      </trkpt>
      <trkpt lat="42.716186" lon="0.674464">
        <ele>1864.6</ele>
        <time>2013-05-26T08:27:01Z</time>
      </trkpt>
      <trkpt lat="42.716115" lon="0.674480">
        <ele>1868.0</ele>
        <time>2013-05-26T08:27:17Z</time>
      </trkpt>
      <trkpt lat="42.716035" lon="0.674574">
        <ele>1872.8</ele>
        <time>2013-05-26T08:27:41Z</time>
      </trkpt>
      <trkpt lat="42.715996" lon="0.674681">
        <ele>1874.7</ele>
        <time>2013-05-26T08:27:58Z</time>
      </trkpt>
      <trkpt lat="42.715975" lon="0.674818">
        <ele>1874.2</ele>
        <time>2013-05-26T08:28:12Z</time>
      </trkpt>
      <trkpt lat="42.715975" lon="0.674947">
        <ele>1873.8</ele>
        <time>2013-05-26T08:28:23Z</time>
      </trkpt>
      <trkpt lat="42.715927" lon="0.675026">
        <ele>1873.3</ele>
        <time>2013-05-26T08:29:11Z</time>
      </trkpt>
      <trkpt lat="42.715870" lon="0.675119">
        <ele>1871.8</ele>
        <time>2013-05-26T08:29:20Z</time>
      </trkpt>
      <trkpt lat="42.715843" lon="0.675212">
        <ele>1874.7</ele>
        <time>2013-05-26T08:29:33Z</time>
      </trkpt>
      <trkpt lat="42.715787" lon="0.675286">
        <ele>1878.1</ele>
        <time>2013-05-26T08:29:48Z</time>
      </trkpt>
      <trkpt lat="42.715734" lon="0.675344">
        <ele>1881.0</ele>
        <time>2013-05-26T08:30:03Z</time>
      </trkpt>
      <trkpt lat="42.715702" lon="0.675466">
        <ele>1881.0</ele>
        <time>2013-05-26T08:30:13Z</time>
      </trkpt>
      <trkpt lat="42.715666" lon="0.675578">
        <ele>1882.9</ele>
        <time>2013-05-26T08:30:25Z</time>
      </trkpt>
      <trkpt lat="42.715622" lon="0.675687">
        <ele>1885.3</ele>
        <time>2013-05-26T08:30:41Z</time>
      </trkpt>
      <trkpt lat="42.715559" lon="0.675762">
        <ele>1886.2</ele>
        <time>2013-05-26T08:30:56Z</time>
      </trkpt>
      <trkpt lat="42.715473" lon="0.675699">
        <ele>1889.1</ele>
        <time>2013-05-26T08:31:26Z</time>
      </trkpt>
      <trkpt lat="42.715424" lon="0.675613">
        <ele>1893.9</ele>
        <time>2013-05-26T08:32:26Z</time>
      </trkpt>
      <trkpt lat="42.715322" lon="0.675560">
        <ele>1899.7</ele>
        <time>2013-05-26T08:33:05Z</time>
      </trkpt>
      <trkpt lat="42.715318" lon="0.675533">
        <ele>1903.1</ele>
        <time>2013-05-26T08:33:54Z</time>
      </trkpt>
      <trkpt lat="42.715259" lon="0.675519">
        <ele>1908.3</ele>
        <time>2013-05-26T08:34:54Z</time>
      </trkpt>
      <trkpt lat="42.715242" lon="0.675459">
        <ele>1909.3</ele>
        <time>2013-05-26T08:36:33Z</time>
      </trkpt>
      <trkpt lat="42.715188" lon="0.675401">
        <ele>1912.2</ele>
        <time>2013-05-26T08:36:53Z</time>
      </trkpt>
      <trkpt lat="42.715086" lon="0.675438">
        <ele>1914.6</ele>
        <time>2013-05-26T08:37:09Z</time>
      </trkpt>
      <trkpt lat="42.715053" lon="0.675469">
        <ele>1916.5</ele>
        <time>2013-05-26T08:39:03Z</time>
      </trkpt>
      <trkpt lat="42.715019" lon="0.675594">
        <ele>1917.0</ele>
        <time>2013-05-26T08:39:15Z</time>
      </trkpt>
      <trkpt lat="42.714964" lon="0.675710">
        <ele>1917.5</ele>
        <time>2013-05-26T08:39:25Z</time>
      </trkpt>
      <trkpt lat="42.714916" lon="0.675814">
        <ele>1916.5</ele>
        <time>2013-05-26T08:39:34Z</time>
      </trkpt>
      <trkpt lat="42.714844" lon="0.675908">
        <ele>1919.4</ele>
        <time>2013-05-26T08:39:46Z</time>
      </trkpt>
      <trkpt lat="42.714805" lon="0.675993">
        <ele>1922.3</ele>
        <time>2013-05-26T08:40:00Z</time>
      </trkpt>
      <trkpt lat="42.714725" lon="0.676073">
        <ele>1923.2</ele>
        <time>2013-05-26T08:40:15Z</time>
      </trkpt>
      <trkpt lat="42.714666" lon="0.676150">
        <ele>1925.2</ele>
        <time>2013-05-26T08:40:29Z</time>
      </trkpt>
      <trkpt lat="42.714571" lon="0.676169">
        <ele>1927.1</ele>
        <time>2013-05-26T08:40:41Z</time>
      </trkpt>
      <trkpt lat="42.714477" lon="0.676171">
        <ele>1928.1</ele>
        <time>2013-05-26T08:41:15Z</time>
      </trkpt>
      <trkpt lat="42.714400" lon="0.676191">
        <ele>1930.9</ele>
        <time>2013-05-26T08:41:28Z</time>
      </trkpt>
      <trkpt lat="42.714323" lon="0.676288">
        <ele>1934.3</ele>
        <time>2013-05-26T08:41:39Z</time>
      </trkpt>
      <trkpt lat="42.714220" lon="0.676319">
        <ele>1935.8</ele>
        <time>2013-05-26T08:41:59Z</time>
      </trkpt>
      <trkpt lat="42.714158" lon="0.676391">
        <ele>1940.1</ele>
        <time>2013-05-26T08:42:15Z</time>
      </trkpt>
      <trkpt lat="42.714097" lon="0.676475">
        <ele>1944.4</ele>
        <time>2013-05-26T08:42:37Z</time>
      </trkpt>
      <trkpt lat="42.714074" lon="0.676565">
        <ele>1949.7</ele>
        <time>2013-05-26T08:43:02Z</time>
      </trkpt>
      <trkpt lat="42.713999" lon="0.676670">
        <ele>1954.0</ele>
        <time>2013-05-26T08:43:36Z</time>
      </trkpt>
      <trkpt lat="42.713919" lon="0.676675">
        <ele>1958.3</ele>
        <time>2013-05-26T08:44:00Z</time>
      </trkpt>
      <trkpt lat="42.713872" lon="0.676734">
        <ele>1962.2</ele>
        <time>2013-05-26T08:44:21Z</time>
      </trkpt>
      <trkpt lat="42.713810" lon="0.676783">
        <ele>1966.0</ele>
        <time>2013-05-26T08:44:51Z</time>
      </trkpt>
      <trkpt lat="42.713762" lon="0.676866">
        <ele>1970.4</ele>
        <time>2013-05-26T08:45:20Z</time>
      </trkpt>
      <trkpt lat="42.713612" lon="0.676862">
        <ele>1974.7</ele>
        <time>2013-05-26T08:45:46Z</time>
      </trkpt>
      <trkpt lat="42.713597" lon="0.676878">
        <ele>1980.4</ele>
        <time>2013-05-26T08:46:36Z</time>
      </trkpt>
      <trkpt lat="42.713556" lon="0.676884">
        <ele>1985.7</ele>
        <time>2013-05-26T08:47:29Z</time>
      </trkpt>
      <trkpt lat="42.713526" lon="0.676849">
        <ele>1992.9</ele>
        <time>2013-05-26T08:48:55Z</time>
      </trkpt>
      <trkpt lat="42.713514" lon="0.676754">
        <ele>1999.2</ele>
        <time>2013-05-26T08:50:02Z</time>
      </trkpt>
      <trkpt lat="42.713487" lon="0.676688">
        <ele>2005.4</ele>
        <time>2013-05-26T08:51:14Z</time>
      </trkpt>
      <trkpt lat="42.713451" lon="0.676626">
        <ele>2009.8</ele>
        <time>2013-05-26T08:52:21Z</time>
      </trkpt>
      <trkpt lat="42.713456" lon="0.676577">
        <ele>2008.8</ele>
        <time>2013-05-26T08:53:20Z</time>
      </trkpt>
      <trkpt lat="42.713407" lon="0.676633">
        <ele>2012.7</ele>
        <time>2013-05-26T08:58:39Z</time>
      </trkpt>
      <trkpt lat="42.713350" lon="0.676708">
        <ele>2016.0</ele>
        <time>2013-05-26T08:58:53Z</time>
      </trkpt>
      <trkpt lat="42.713286" lon="0.676757">
        <ele>2020.8</ele>
        <time>2013-05-26T08:59:13Z</time>
      </trkpt>
      <trkpt lat="42.713190" lon="0.676825">
        <ele>2025.6</ele>
        <time>2013-05-26T08:59:51Z</time>
      </trkpt>
      <trkpt lat="42.713109" lon="0.676865">
        <ele>2029.0</ele>
        <time>2013-05-26T09:00:09Z</time>
      </trkpt>
      <trkpt lat="42.713041" lon="0.676890">
        <ele>2031.9</ele>
        <time>2013-05-26T09:00:25Z</time>
      </trkpt>
      <trkpt lat="42.712976" lon="0.676962">
        <ele>2031.4</ele>
        <time>2013-05-26T09:00:41Z</time>
      </trkpt>
      <trkpt lat="42.712889" lon="0.677016">
        <ele>2034.3</ele>
        <time>2013-05-26T09:00:58Z</time>
      </trkpt>
      <trkpt lat="42.712818" lon="0.677074">
        <ele>2035.7</ele>
        <time>2013-05-26T09:01:14Z</time>
      </trkpt>
      <trkpt lat="42.712765" lon="0.677170">
        <ele>2039.1</ele>
        <time>2013-05-26T09:01:32Z</time>
      </trkpt>
      <trkpt lat="42.712693" lon="0.677232">
        <ele>2042.9</ele>
        <time>2013-05-26T09:01:52Z</time>
      </trkpt>
      <trkpt lat="42.712594" lon="0.677246">
        <ele>2045.3</ele>
        <time>2013-05-26T09:02:36Z</time>
      </trkpt>
      <trkpt lat="42.712551" lon="0.677351">
        <ele>2047.8</ele>
        <time>2013-05-26T09:03:16Z</time>
      </trkpt>
      <trkpt lat="42.712489" lon="0.677455">
        <ele>2050.1</ele>
        <time>2013-05-26T09:03:39Z</time>
      </trkpt>
      <trkpt lat="42.712463" lon="0.677454">
        <ele>2050.1</ele>
        <time>2013-05-26T09:04:11Z</time>
      </trkpt>
      <trkpt lat="42.712466" lon="0.677473">
        <ele>2051.1</ele>
        <time>2013-05-26T09:15:08Z</time>
      </trkpt>
      <trkpt lat="42.712410" lon="0.677572">
        <ele>2053.0</ele>
        <time>2013-05-26T09:15:33Z</time>
      </trkpt>
      <trkpt lat="42.712328" lon="0.677643">
        <ele>2055.0</ele>
        <time>2013-05-26T09:15:49Z</time>
      </trkpt>
      <trkpt lat="42.712263" lon="0.677716">
        <ele>2057.4</ele>
        <time>2013-05-26T09:16:02Z</time>
      </trkpt>
      <trkpt lat="42.712206" lon="0.677787">
        <ele>2059.3</ele>
        <time>2013-05-26T09:16:43Z</time>
      </trkpt>
      <trkpt lat="42.712147" lon="0.677873">
        <ele>2061.7</ele>
        <time>2013-05-26T09:17:00Z</time>
      </trkpt>
      <trkpt lat="42.712095" lon="0.677956">
        <ele>2066.0</ele>
        <time>2013-05-26T09:17:23Z</time>
      </trkpt>
      <trkpt lat="42.712021" lon="0.678035">
        <ele>2069.9</ele>
        <time>2013-05-26T09:17:46Z</time>
      </trkpt>
      <trkpt lat="42.711978" lon="0.678109">
        <ele>2074.2</ele>
        <time>2013-05-26T09:18:12Z</time>
      </trkpt>
      <trkpt lat="42.711913" lon="0.678200">
        <ele>2077.1</ele>
        <time>2013-05-26T09:18:33Z</time>
      </trkpt>
      <trkpt lat="42.711847" lon="0.678278">
        <ele>2081.9</ele>
        <time>2013-05-26T09:19:07Z</time>
      </trkpt>
      <trkpt lat="42.711808" lon="0.678388">
        <ele>2087.2</ele>
        <time>2013-05-26T09:19:41Z</time>
      </trkpt>
      <trkpt lat="42.711742" lon="0.678480">
        <ele>2091.5</ele>
        <time>2013-05-26T09:20:12Z</time>
      </trkpt>
      <trkpt lat="42.711686" lon="0.678575">
        <ele>2095.3</ele>
        <time>2013-05-26T09:20:37Z</time>
      </trkpt>
      <trkpt lat="42.711619" lon="0.678639">
        <ele>2099.2</ele>
        <time>2013-05-26T09:20:56Z</time>
      </trkpt>
      <trkpt lat="42.711562" lon="0.678700">
        <ele>2102.5</ele>
        <time>2013-05-26T09:21:16Z</time>
      </trkpt>
      <trkpt lat="42.711483" lon="0.678740">
        <ele>2105.9</ele>
        <time>2013-05-26T09:21:42Z</time>
      </trkpt>
      <trkpt lat="42.711395" lon="0.678752">
        <ele>2109.8</ele>
        <time>2013-05-26T09:22:09Z</time>
      </trkpt>
      <trkpt lat="42.711297" lon="0.678728">
        <ele>2113.1</ele>
        <time>2013-05-26T09:22:30Z</time>
      </trkpt>
      <trkpt lat="42.711210" lon="0.678731">
        <ele>2115.5</ele>
        <time>2013-05-26T09:22:51Z</time>
      </trkpt>
      <trkpt lat="42.711203" lon="0.678837">
        <ele>2118.9</ele>
        <time>2013-05-26T09:23:14Z</time>
      </trkpt>
      <trkpt lat="42.711172" lon="0.678953">
        <ele>2122.2</ele>
        <time>2013-05-26T09:23:36Z</time>
      </trkpt>
      <trkpt lat="42.711152" lon="0.679088">
        <ele>2125.6</ele>
        <time>2013-05-26T09:23:58Z</time>
      </trkpt>
      <trkpt lat="42.711086" lon="0.679164">
        <ele>2127.1</ele>
        <time>2013-05-26T09:25:02Z</time>
      </trkpt>
      <trkpt lat="42.711018" lon="0.679268">
        <ele>2129.0</ele>
        <time>2013-05-26T09:25:13Z</time>
      </trkpt>
      <trkpt lat="42.710959" lon="0.679351">
        <ele>2130.4</ele>
        <time>2013-05-26T09:25:24Z</time>
      </trkpt>
      <trkpt lat="42.710900" lon="0.679436">
        <ele>2132.3</ele>
        <time>2013-05-26T09:25:35Z</time>
      </trkpt>
      <trkpt lat="42.710852" lon="0.679549">
        <ele>2133.8</ele>
        <time>2013-05-26T09:25:47Z</time>
      </trkpt>
      <trkpt lat="42.710798" lon="0.679658">
        <ele>2135.2</ele>
        <time>2013-05-26T09:25:58Z</time>
      </trkpt>
      <trkpt lat="42.710747" lon="0.679753">
        <ele>2136.2</ele>
        <time>2013-05-26T09:26:10Z</time>
      </trkpt>
      <trkpt lat="42.710697" lon="0.679785">
        <ele>2137.1</ele>
        <time>2013-05-26T09:26:39Z</time>
      </trkpt>
      <trkpt lat="42.710710" lon="0.679908">
        <ele>2138.1</ele>
        <time>2013-05-26T09:26:49Z</time>
      </trkpt>
      <trkpt lat="42.710692" lon="0.680022">
        <ele>2139.1</ele>
        <time>2013-05-26T09:26:59Z</time>
      </trkpt>
      <trkpt lat="42.710686" lon="0.680167">
        <ele>2140.0</ele>
        <time>2013-05-26T09:27:10Z</time>
      </trkpt>
      <trkpt lat="42.710663" lon="0.680274">
        <ele>2141.0</ele>
        <time>2013-05-26T09:27:20Z</time>
      </trkpt>
      <trkpt lat="42.710637" lon="0.680382">
        <ele>2141.5</ele>
        <time>2013-05-26T09:27:29Z</time>
      </trkpt>
      <trkpt lat="42.710630" lon="0.680520">
        <ele>2142.4</ele>
        <time>2013-05-26T09:27:39Z</time>
      </trkpt>
      <trkpt lat="42.710611" lon="0.680627">
        <ele>2142.4</ele>
        <time>2013-05-26T09:27:49Z</time>
      </trkpt>
      <trkpt lat="42.710583" lon="0.680747">
        <ele>2141.5</ele>
        <time>2013-05-26T09:28:07Z</time>
      </trkpt>
      <trkpt lat="42.710560" lon="0.680836">
        <ele>2141.5</ele>
        <time>2013-05-26T09:28:18Z</time>
      </trkpt>
      <trkpt lat="42.710520" lon="0.680949">
        <ele>2139.6</ele>
        <time>2013-05-26T09:28:35Z</time>
      </trkpt>
      <trkpt lat="42.710449" lon="0.681059">
        <ele>2139.1</ele>
        <time>2013-05-26T09:28:47Z</time>
      </trkpt>
      <trkpt lat="42.710372" lon="0.681139">
        <ele>2140.5</ele>
        <time>2013-05-26T09:28:59Z</time>
      </trkpt>
      <trkpt lat="42.710376" lon="0.681271">
        <ele>2140.5</ele>
        <time>2013-05-26T09:29:11Z</time>
      </trkpt>
      <trkpt lat="42.710308" lon="0.681404">
        <ele>2140.0</ele>
        <time>2013-05-26T09:29:23Z</time>
      </trkpt>
      <trkpt lat="42.710255" lon="0.681498">
        <ele>2139.1</ele>
        <time>2013-05-26T09:29:57Z</time>
      </trkpt>
      <trkpt lat="42.710230" lon="0.681526">
        <ele>2138.1</ele>
        <time>2013-05-26T09:35:31Z</time>
      </trkpt>
      <trkpt lat="42.710171" lon="0.681547">
        <ele>2138.6</ele>
        <time>2013-05-26T09:40:20Z</time>
      </trkpt>
      <trkpt lat="42.710075" lon="0.681544">
        <ele>2139.1</ele>
        <time>2013-05-26T09:40:31Z</time>
      </trkpt>
      <trkpt lat="42.709993" lon="0.681590">
        <ele>2140.5</ele>
        <time>2013-05-26T09:40:42Z</time>
      </trkpt>
      <trkpt lat="42.709920" lon="0.681668">
        <ele>2141.5</ele>
        <time>2013-05-26T09:40:53Z</time>
      </trkpt>
      <trkpt lat="42.709833" lon="0.681734">
        <ele>2143.9</ele>
        <time>2013-05-26T09:41:05Z</time>
      </trkpt>
      <trkpt lat="42.709745" lon="0.681780">
        <ele>2145.3</ele>
        <time>2013-05-26T09:41:17Z</time>
      </trkpt>
      <trkpt lat="42.709663" lon="0.681838">
        <ele>2148.2</ele>
        <time>2013-05-26T09:41:30Z</time>
      </trkpt>
      <trkpt lat="42.709585" lon="0.681889">
        <ele>2150.6</ele>
        <time>2013-05-26T09:41:43Z</time>
      </trkpt>
      <trkpt lat="42.709502" lon="0.681947">
        <ele>2152.5</ele>
        <time>2013-05-26T09:41:54Z</time>
      </trkpt>
      <trkpt lat="42.709432" lon="0.681993">
        <ele>2154.4</ele>
        <time>2013-05-26T09:42:08Z</time>
      </trkpt>
      <trkpt lat="42.709373" lon="0.682078">
        <ele>2156.9</ele>
        <time>2013-05-26T09:42:23Z</time>
      </trkpt>
      <trkpt lat="42.709342" lon="0.682176">
        <ele>2160.2</ele>
        <time>2013-05-26T09:42:52Z</time>
      </trkpt>
      <trkpt lat="42.709262" lon="0.682242">
        <ele>2160.7</ele>
        <time>2013-05-26T09:43:34Z</time>
      </trkpt>
      <trkpt lat="42.709170" lon="0.682284">
        <ele>2162.1</ele>
        <time>2013-05-26T09:43:43Z</time>
      </trkpt>
      <trkpt lat="42.709104" lon="0.682377">
        <ele>2163.1</ele>
        <time>2013-05-26T09:43:52Z</time>
      </trkpt>
      <trkpt lat="42.709064" lon="0.682471">
        <ele>2163.1</ele>
        <time>2013-05-26T09:44:03Z</time>
      </trkpt>
      <trkpt lat="42.709004" lon="0.682491">
        <ele>2163.6</ele>
        <time>2013-05-26T09:44:46Z</time>
        <name>Pic de Roye</name>
      </trkpt>
      <trkpt lat="42.708936" lon="0.682579">
        <ele>2161.2</ele>
        <time>2013-05-26T09:44:55Z</time>
      </trkpt>
      <trkpt lat="42.708841" lon="0.682608">
        <ele>2158.8</ele>
        <time>2013-05-26T09:45:03Z</time>
      </trkpt>
      <trkpt lat="42.708755" lon="0.682604">
        <ele>2156.9</ele>
        <time>2013-05-26T09:45:11Z</time>
      </trkpt>
      <trkpt lat="42.708670" lon="0.682588">
        <ele>2153.5</ele>
        <time>2013-05-26T09:45:22Z</time>
      </trkpt>
      <trkpt lat="42.708577" lon="0.682537">
        <ele>2152.1</ele>
        <time>2013-05-26T09:45:32Z</time>
      </trkpt>
      <trkpt lat="42.708492" lon="0.682511">
        <ele>2151.1</ele>
        <time>2013-05-26T09:45:40Z</time>
      </trkpt>
      <trkpt lat="42.708392" lon="0.682502">
        <ele>2153.0</ele>
        <time>2013-05-26T09:45:51Z</time>
      </trkpt>
      <trkpt lat="42.708303" lon="0.682523">
        <ele>2152.5</ele>
        <time>2013-05-26T09:46:01Z</time>
      </trkpt>
      <trkpt lat="42.708229" lon="0.682451">
        <ele>2151.6</ele>
        <time>2013-05-26T09:46:11Z</time>
      </trkpt>
      <trkpt lat="42.708156" lon="0.682354">
        <ele>2148.7</ele>
        <time>2013-05-26T09:46:20Z</time>
      </trkpt>
      <trkpt lat="42.708094" lon="0.682284">
        <ele>2147.7</ele>
        <time>2013-05-26T09:46:30Z</time>
      </trkpt>
      <trkpt lat="42.708010" lon="0.682271">
        <ele>2144.8</ele>
        <time>2013-05-26T09:46:40Z</time>
      </trkpt>
      <trkpt lat="42.707919" lon="0.682231">
        <ele>2142.4</ele>
        <time>2013-05-26T09:46:49Z</time>
      </trkpt>
      <trkpt lat="42.707832" lon="0.682175">
        <ele>2141.0</ele>
        <time>2013-05-26T09:46:58Z</time>
      </trkpt>
      <trkpt lat="42.707751" lon="0.682109">
        <ele>2140.0</ele>
        <time>2013-05-26T09:47:07Z</time>
      </trkpt>
      <trkpt lat="42.707686" lon="0.682039">
        <ele>2140.5</ele>
        <time>2013-05-26T09:47:15Z</time>
      </trkpt>
      <trkpt lat="42.707602" lon="0.682006">
        <ele>2139.1</ele>
        <time>2013-05-26T09:47:24Z</time>
      </trkpt>
      <trkpt lat="42.707514" lon="0.681942">
        <ele>2137.6</ele>
        <time>2013-05-26T09:47:33Z</time>
      </trkpt>
      <trkpt lat="42.707424" lon="0.681922">
        <ele>2136.2</ele>
        <time>2013-05-26T09:47:42Z</time>
      </trkpt>
      <trkpt lat="42.707342" lon="0.681870">
        <ele>2134.7</ele>
        <time>2013-05-26T09:47:52Z</time>
      </trkpt>
      <trkpt lat="42.707249" lon="0.681864">
        <ele>2132.3</ele>
        <time>2013-05-26T09:48:02Z</time>
      </trkpt>
      <trkpt lat="42.707153" lon="0.681866">
        <ele>2129.5</ele>
        <time>2013-05-26T09:48:11Z</time>
      </trkpt>
      <trkpt lat="42.707069" lon="0.681872">
        <ele>2125.6</ele>
        <time>2013-05-26T09:48:20Z</time>
      </trkpt>
      <trkpt lat="42.706964" lon="0.681864">
        <ele>2124.2</ele>
        <time>2013-05-26T09:48:29Z</time>
      </trkpt>
      <trkpt lat="42.706879" lon="0.681855">
        <ele>2122.7</ele>
        <time>2013-05-26T09:48:37Z</time>
      </trkpt>
      <trkpt lat="42.706780" lon="0.681832">
        <ele>2119.8</ele>
        <time>2013-05-26T09:48:46Z</time>
      </trkpt>
      <trkpt lat="42.706676" lon="0.681814">
        <ele>2118.4</ele>
        <time>2013-05-26T09:48:55Z</time>
      </trkpt>
      <trkpt lat="42.706594" lon="0.681791">
        <ele>2117.9</ele>
        <time>2013-05-26T09:49:03Z</time>
      </trkpt>
      <trkpt lat="42.706482" lon="0.681771">
        <ele>2117.0</ele>
        <time>2013-05-26T09:49:26Z</time>
      </trkpt>
      <trkpt lat="42.706388" lon="0.681752">
        <ele>2114.6</ele>
        <time>2013-05-26T09:49:35Z</time>
      </trkpt>
      <trkpt lat="42.706312" lon="0.681725">
        <ele>2113.1</ele>
        <time>2013-05-26T09:50:26Z</time>
      </trkpt>
      <trkpt lat="42.706222" lon="0.681712">
        <ele>2110.7</ele>
        <time>2013-05-26T09:50:32Z</time>
      </trkpt>
      <trkpt lat="42.706132" lon="0.681672">
        <ele>2109.3</ele>
        <time>2013-05-26T09:50:38Z</time>
      </trkpt>
      <trkpt lat="42.706045" lon="0.681627">
        <ele>2109.3</ele>
        <time>2013-05-26T09:50:45Z</time>
      </trkpt>
      <trkpt lat="42.705955" lon="0.681571">
        <ele>2110.2</ele>
        <time>2013-05-26T09:50:55Z</time>
      </trkpt>
      <trkpt lat="42.705869" lon="0.681512">
        <ele>2111.7</ele>
        <time>2013-05-26T09:51:05Z</time>
      </trkpt>
      <trkpt lat="42.705789" lon="0.681469">
        <ele>2114.6</ele>
        <time>2013-05-26T09:51:19Z</time>
      </trkpt>
      <trkpt lat="42.705728" lon="0.681410">
        <ele>2117.4</ele>
        <time>2013-05-26T09:51:36Z</time>
      </trkpt>
      <trkpt lat="42.705639" lon="0.681368">
        <ele>2121.8</ele>
        <time>2013-05-26T09:51:54Z</time>
      </trkpt>
      <trkpt lat="42.705572" lon="0.681300">
        <ele>2124.6</ele>
        <time>2013-05-26T09:52:14Z</time>
      </trkpt>
      <trkpt lat="42.705498" lon="0.681314">
        <ele>2128.0</ele>
        <time>2013-05-26T09:52:33Z</time>
      </trkpt>
      <trkpt lat="42.705470" lon="0.681200">
        <ele>2130.9</ele>
        <time>2013-05-26T09:52:51Z</time>
      </trkpt>
      <trkpt lat="42.705383" lon="0.681206">
        <ele>2133.3</ele>
        <time>2013-05-26T09:53:09Z</time>
      </trkpt>
      <trkpt lat="42.705339" lon="0.681150">
        <ele>2136.2</ele>
        <time>2013-05-26T09:53:26Z</time>
      </trkpt>
      <trkpt lat="42.705271" lon="0.681106">
        <ele>2140.5</ele>
        <time>2013-05-26T09:53:44Z</time>
      </trkpt>
      <trkpt lat="42.705214" lon="0.681057">
        <ele>2143.9</ele>
        <time>2013-05-26T09:54:05Z</time>
      </trkpt>
      <trkpt lat="42.705171" lon="0.680974">
        <ele>2146.8</ele>
        <time>2013-05-26T09:54:21Z</time>
      </trkpt>
      <trkpt lat="42.705111" lon="0.680905">
        <ele>2150.6</ele>
        <time>2013-05-26T09:54:39Z</time>
      </trkpt>
      <trkpt lat="42.705068" lon="0.680816">
        <ele>2154.9</ele>
        <time>2013-05-26T09:55:02Z</time>
      </trkpt>
      <trkpt lat="42.705036" lon="0.680745">
        <ele>2158.3</ele>
        <time>2013-05-26T09:55:22Z</time>
      </trkpt>
      <trkpt lat="42.704983" lon="0.680668">
        <ele>2162.6</ele>
        <time>2013-05-26T09:55:48Z</time>
      </trkpt>
      <trkpt lat="42.704998" lon="0.680550">
        <ele>2163.1</ele>
        <time>2013-05-26T09:57:06Z</time>
      </trkpt>
      <trkpt lat="42.704974" lon="0.680447">
        <ele>2161.2</ele>
        <time>2013-05-26T09:57:16Z</time>
      </trkpt>
      <trkpt lat="42.704925" lon="0.680339">
        <ele>2161.7</ele>
        <time>2013-05-26T09:57:26Z</time>
      </trkpt>
      <trkpt lat="42.704893" lon="0.680227">
        <ele>2163.1</ele>
        <time>2013-05-26T09:57:37Z</time>
      </trkpt>
      <trkpt lat="42.704872" lon="0.680111">
        <ele>2161.7</ele>
        <time>2013-05-26T09:57:47Z</time>
      </trkpt>
      <trkpt lat="42.704819" lon="0.680032">
        <ele>2160.7</ele>
        <time>2013-05-26T09:58:38Z</time>
      </trkpt>
      <trkpt lat="42.704760" lon="0.679915">
        <ele>2157.8</ele>
        <time>2013-05-26T09:58:46Z</time>
      </trkpt>
      <trkpt lat="42.704708" lon="0.679810">
        <ele>2155.9</ele>
        <time>2013-05-26T09:58:54Z</time>
      </trkpt>
      <trkpt lat="42.704663" lon="0.679686">
        <ele>2153.5</ele>
        <time>2013-05-26T09:59:03Z</time>
      </trkpt>
      <trkpt lat="42.704626" lon="0.679570">
        <ele>2151.1</ele>
        <time>2013-05-26T09:59:11Z</time>
      </trkpt>
      <trkpt lat="42.704596" lon="0.679439">
        <ele>2148.2</ele>
        <time>2013-05-26T09:59:20Z</time>
      </trkpt>
      <trkpt lat="42.704554" lon="0.679320">
        <ele>2145.3</ele>
        <time>2013-05-26T09:59:29Z</time>
      </trkpt>
      <trkpt lat="42.704512" lon="0.679210">
        <ele>2141.0</ele>
        <time>2013-05-26T09:59:38Z</time>
      </trkpt>
      <trkpt lat="42.704425" lon="0.679182">
        <ele>2137.1</ele>
        <time>2013-05-26T09:59:48Z</time>
      </trkpt>
      <trkpt lat="42.704332" lon="0.679180">
        <ele>2132.3</ele>
        <time>2013-05-26T10:00:00Z</time>
      </trkpt>
      <trkpt lat="42.704242" lon="0.679162">
        <ele>2128.0</ele>
        <time>2013-05-26T10:00:12Z</time>
      </trkpt>
      <trkpt lat="42.704210" lon="0.679067">
        <ele>2123.2</ele>
        <time>2013-05-26T10:00:58Z</time>
      </trkpt>
      <trkpt lat="42.704134" lon="0.678980">
        <ele>2117.4</ele>
        <time>2013-05-26T10:01:07Z</time>
      </trkpt>
      <trkpt lat="42.704054" lon="0.678898">
        <ele>2109.8</ele>
        <time>2013-05-26T10:01:18Z</time>
      </trkpt>
      <trkpt lat="42.704013" lon="0.678785">
        <ele>2102.5</ele>
        <time>2013-05-26T10:01:29Z</time>
      </trkpt>
      <trkpt lat="42.703947" lon="0.678677">
        <ele>2096.3</ele>
        <time>2013-05-26T10:01:39Z</time>
      </trkpt>
      <trkpt lat="42.703893" lon="0.678570">
        <ele>2090.0</ele>
        <time>2013-05-26T10:01:49Z</time>
      </trkpt>
      <trkpt lat="42.703822" lon="0.678480">
        <ele>2084.8</ele>
        <time>2013-05-26T10:02:02Z</time>
      </trkpt>
      <trkpt lat="42.703757" lon="0.678392">
        <ele>2079.5</ele>
        <time>2013-05-26T10:02:12Z</time>
      </trkpt>
      <trkpt lat="42.703711" lon="0.678303">
        <ele>2076.1</ele>
        <time>2013-05-26T10:02:21Z</time>
      </trkpt>
      <trkpt lat="42.703668" lon="0.678190">
        <ele>2074.2</ele>
        <time>2013-05-26T10:02:30Z</time>
      </trkpt>
      <trkpt lat="42.703612" lon="0.678098">
        <ele>2073.7</ele>
        <time>2013-05-26T10:02:41Z</time>
      </trkpt>
      <trkpt lat="42.703582" lon="0.677991">
        <ele>2073.2</ele>
        <time>2013-05-26T10:02:50Z</time>
      </trkpt>
      <trkpt lat="42.703527" lon="0.677873">
        <ele>2070.8</ele>
        <time>2013-05-26T10:02:59Z</time>
      </trkpt>
      <trkpt lat="42.703486" lon="0.677741">
        <ele>2069.4</ele>
        <time>2013-05-26T10:03:09Z</time>
      </trkpt>
      <trkpt lat="42.703424" lon="0.677628">
        <ele>2066.5</ele>
        <time>2013-05-26T10:03:19Z</time>
        <name>Pas de la Mounjoye</name>
      </trkpt>
      <trkpt lat="42.703354" lon="0.677523">
        <ele>2066.5</ele>
        <time>2013-05-26T10:04:02Z</time>
      </trkpt>
      <trkpt lat="42.703352" lon="0.677408">
        <ele>2069.4</ele>
        <time>2013-05-26T10:05:18Z</time>
      </trkpt>
      <trkpt lat="42.703295" lon="0.677303">
        <ele>2071.3</ele>
        <time>2013-05-26T10:05:32Z</time>
      </trkpt>
      <trkpt lat="42.703209" lon="0.677216">
        <ele>2075.1</ele>
        <time>2013-05-26T10:05:54Z</time>
      </trkpt>
      <trkpt lat="42.703200" lon="0.677131">
        <ele>2078.5</ele>
        <time>2013-05-26T10:06:16Z</time>
      </trkpt>
      <trkpt lat="42.703198" lon="0.677017">
        <ele>2081.4</ele>
        <time>2013-05-26T10:06:34Z</time>
      </trkpt>
      <trkpt lat="42.703159" lon="0.676932">
        <ele>2084.8</ele>
        <time>2013-05-26T10:06:55Z</time>
      </trkpt>
      <trkpt lat="42.703110" lon="0.676805">
        <ele>2089.6</ele>
        <time>2013-05-26T10:07:22Z</time>
      </trkpt>
      <trkpt lat="42.703097" lon="0.676740">
        <ele>2092.9</ele>
        <time>2013-05-26T10:07:47Z</time>
      </trkpt>
      <trkpt lat="42.703065" lon="0.676625">
        <ele>2097.2</ele>
        <time>2013-05-26T10:08:11Z</time>
      </trkpt>
      <trkpt lat="42.703052" lon="0.676504">
        <ele>2101.1</ele>
        <time>2013-05-26T10:08:38Z</time>
      </trkpt>
      <trkpt lat="42.703053" lon="0.676387">
        <ele>2105.9</ele>
        <time>2013-05-26T10:09:10Z</time>
      </trkpt>
      <trkpt lat="42.703002" lon="0.676331">
        <ele>2111.2</ele>
        <time>2013-05-26T10:09:51Z</time>
      </trkpt>
      <trkpt lat="42.702958" lon="0.676232">
        <ele>2116.5</ele>
        <time>2013-05-26T10:10:22Z</time>
      </trkpt>
      <trkpt lat="42.702916" lon="0.676185">
        <ele>2117.9</ele>
        <time>2013-05-26T10:10:38Z</time>
      </trkpt>
      <trkpt lat="42.702849" lon="0.676121">
        <ele>2119.8</ele>
        <time>2013-05-26T10:10:54Z</time>
      </trkpt>
      <trkpt lat="42.702792" lon="0.676058">
        <ele>2121.8</ele>
        <time>2013-05-26T10:11:12Z</time>
      </trkpt>
      <trkpt lat="42.702729" lon="0.676011">
        <ele>2124.2</ele>
        <time>2013-05-26T10:11:35Z</time>
      </trkpt>
      <trkpt lat="42.702673" lon="0.675963">
        <ele>2126.6</ele>
        <time>2013-05-26T10:13:58Z</time>
      </trkpt>
      <trkpt lat="42.702604" lon="0.675891">
        <ele>2128.5</ele>
        <time>2013-05-26T10:14:17Z</time>
      </trkpt>
      <trkpt lat="42.702527" lon="0.675847">
        <ele>2127.5</ele>
        <time>2013-05-26T10:14:31Z</time>
      </trkpt>
      <trkpt lat="42.702433" lon="0.675817">
        <ele>2129.5</ele>
        <time>2013-05-26T10:14:47Z</time>
      </trkpt>
      <trkpt lat="42.702372" lon="0.675728">
        <ele>2131.9</ele>
        <time>2013-05-26T10:15:04Z</time>
      </trkpt>
      <trkpt lat="42.702307" lon="0.675650">
        <ele>2133.8</ele>
        <time>2013-05-26T10:15:21Z</time>
      </trkpt>
      <trkpt lat="42.702240" lon="0.675602">
        <ele>2135.7</ele>
        <time>2013-05-26T10:15:38Z</time>
      </trkpt>
      <trkpt lat="42.702168" lon="0.675581">
        <ele>2137.6</ele>
        <time>2013-05-26T10:15:55Z</time>
      </trkpt>
      <trkpt lat="42.702076" lon="0.675545">
        <ele>2140.5</ele>
        <time>2013-05-26T10:16:16Z</time>
      </trkpt>
      <trkpt lat="42.701999" lon="0.675490">
        <ele>2143.9</ele>
        <time>2013-05-26T10:16:36Z</time>
      </trkpt>
      <trkpt lat="42.701909" lon="0.675432">
        <ele>2146.3</ele>
        <time>2013-05-26T10:16:57Z</time>
      </trkpt>
      <trkpt lat="42.701822" lon="0.675393">
        <ele>2149.2</ele>
        <time>2013-05-26T10:17:14Z</time>
      </trkpt>
      <trkpt lat="42.701747" lon="0.675352">
        <ele>2151.6</ele>
        <time>2013-05-26T10:17:34Z</time>
      </trkpt>
      <trkpt lat="42.701668" lon="0.675329">
        <ele>2154.4</ele>
        <time>2013-05-26T10:17:52Z</time>
      </trkpt>
      <trkpt lat="42.701594" lon="0.675282">
        <ele>2156.4</ele>
        <time>2013-05-26T10:18:10Z</time>
      </trkpt>
      <trkpt lat="42.701506" lon="0.675256">
        <ele>2159.3</ele>
        <time>2013-05-26T10:18:31Z</time>
      </trkpt>
      <trkpt lat="42.701433" lon="0.675182">
        <ele>2161.7</ele>
        <time>2013-05-26T10:18:50Z</time>
      </trkpt>
      <trkpt lat="42.701356" lon="0.675116">
        <ele>2163.6</ele>
        <time>2013-05-26T10:19:10Z</time>
      </trkpt>
      <trkpt lat="42.701277" lon="0.675062">
        <ele>2166.5</ele>
        <time>2013-05-26T10:19:28Z</time>
      </trkpt>
      <trkpt lat="42.701201" lon="0.675026">
        <ele>2168.9</ele>
        <time>2013-05-26T10:19:44Z</time>
      </trkpt>
      <trkpt lat="42.701115" lon="0.674999">
        <ele>2171.3</ele>
        <time>2013-05-26T10:20:03Z</time>
      </trkpt>
      <trkpt lat="42.701035" lon="0.674968">
        <ele>2174.6</ele>
        <time>2013-05-26T10:20:24Z</time>
      </trkpt>
      <trkpt lat="42.700940" lon="0.674908">
        <ele>2177.5</ele>
        <time>2013-05-26T10:20:43Z</time>
      </trkpt>
      <trkpt lat="42.700872" lon="0.674834">
        <ele>2179.9</ele>
        <time>2013-05-26T10:20:59Z</time>
      </trkpt>
      <trkpt lat="42.700790" lon="0.674802">
        <ele>2182.8</ele>
        <time>2013-05-26T10:21:15Z</time>
      </trkpt>
      <trkpt lat="42.700706" lon="0.674749">
        <ele>2185.2</ele>
        <time>2013-05-26T10:21:33Z</time>
      </trkpt>
      <trkpt lat="42.700611" lon="0.674671">
        <ele>2188.1</ele>
        <time>2013-05-26T10:21:53Z</time>
      </trkpt>
      <trkpt lat="42.700528" lon="0.674629">
        <ele>2191.0</ele>
        <time>2013-05-26T10:22:46Z</time>
      </trkpt>
      <trkpt lat="42.700440" lon="0.674601">
        <ele>2194.4</ele>
        <time>2013-05-26T10:23:02Z</time>
      </trkpt>
      <trkpt lat="42.700356" lon="0.674572">
        <ele>2197.7</ele>
        <time>2013-05-26T10:23:18Z</time>
      </trkpt>
      <trkpt lat="42.700272" lon="0.674511">
        <ele>2201.6</ele>
        <time>2013-05-26T10:23:35Z</time>
      </trkpt>
      <trkpt lat="42.700202" lon="0.674457">
        <ele>2204.4</ele>
        <time>2013-05-26T10:24:13Z</time>
      </trkpt>
      <trkpt lat="42.700115" lon="0.674422">
        <ele>2207.3</ele>
        <time>2013-05-26T10:24:34Z</time>
      </trkpt>
      <trkpt lat="42.700035" lon="0.674409">
        <ele>2210.7</ele>
        <time>2013-05-26T10:24:53Z</time>
      </trkpt>
      <trkpt lat="42.699944" lon="0.674382">
        <ele>2214.1</ele>
        <time>2013-05-26T10:25:11Z</time>
      </trkpt>
      <trkpt lat="42.699860" lon="0.674332">
        <ele>2216.9</ele>
        <time>2013-05-26T10:25:32Z</time>
      </trkpt>
      <trkpt lat="42.699786" lon="0.674273">
        <ele>2220.3</ele>
        <time>2013-05-26T10:25:47Z</time>
      </trkpt>
      <trkpt lat="42.699708" lon="0.674232">
        <ele>2222.7</ele>
        <time>2013-05-26T10:26:06Z</time>
      </trkpt>
      <trkpt lat="42.699618" lon="0.674176">
        <ele>2226.6</ele>
        <time>2013-05-26T10:26:26Z</time>
      </trkpt>
      <trkpt lat="42.699541" lon="0.674131">
        <ele>2228.9</ele>
        <time>2013-05-26T10:26:43Z</time>
      </trkpt>
      <trkpt lat="42.699494" lon="0.674121">
        <ele>2231.8</ele>
        <time>2013-05-26T10:28:41Z</time>
      </trkpt>
      <trkpt lat="42.699417" lon="0.674121">
        <ele>2233.8</ele>
        <time>2013-05-26T10:29:22Z</time>
      </trkpt>
      <trkpt lat="42.699335" lon="0.674178">
        <ele>2237.6</ele>
        <time>2013-05-26T10:29:37Z</time>
      </trkpt>
      <trkpt lat="42.699251" lon="0.674142">
        <ele>2240.0</ele>
        <time>2013-05-26T10:29:50Z</time>
      </trkpt>
      <trkpt lat="42.699166" lon="0.674079">
        <ele>2240.5</ele>
        <time>2013-05-26T10:30:04Z</time>
      </trkpt>
      <trkpt lat="42.699114" lon="0.674039">
        <ele>2239.5</ele>
        <time>2013-05-26T10:30:37Z</time>
      </trkpt>
      <trkpt lat="42.699054" lon="0.673947">
        <ele>2237.6</ele>
        <time>2013-05-26T10:30:49Z</time>
      </trkpt>
      <trkpt lat="42.698956" lon="0.673904">
        <ele>2237.6</ele>
        <time>2013-05-26T10:31:20Z</time>
      </trkpt>
      <trkpt lat="42.698900" lon="0.673910">
        <ele>2239.5</ele>
        <time>2013-05-26T10:32:01Z</time>
      </trkpt>
      <trkpt lat="42.698784" lon="0.673887">
        <ele>2241.0</ele>
        <time>2013-05-26T10:32:15Z</time>
      </trkpt>
      <trkpt lat="42.698699" lon="0.673884">
        <ele>2243.9</ele>
        <time>2013-05-26T10:32:30Z</time>
      </trkpt>
      <trkpt lat="42.698604" lon="0.673875">
        <ele>2246.7</ele>
        <time>2013-05-26T10:32:49Z</time>
      </trkpt>
      <trkpt lat="42.698510" lon="0.673867">
        <ele>2249.1</ele>
        <time>2013-05-26T10:33:04Z</time>
      </trkpt>
      <trkpt lat="42.698429" lon="0.673897">
        <ele>2251.5</ele>
        <time>2013-05-26T10:33:21Z</time>
      </trkpt>
      <trkpt lat="42.698334" lon="0.673910">
        <ele>2253.9</ele>
        <time>2013-05-26T10:33:37Z</time>
      </trkpt>
      <trkpt lat="42.698230" lon="0.673950">
        <ele>2255.9</ele>
        <time>2013-05-26T10:33:58Z</time>
      </trkpt>
      <trkpt lat="42.698126" lon="0.674000">
        <ele>2259.7</ele>
        <time>2013-05-26T10:34:21Z</time>
      </trkpt>
      <trkpt lat="42.698022" lon="0.673982">
        <ele>2261.2</ele>
        <time>2013-05-26T10:34:36Z</time>
      </trkpt>
      <trkpt lat="42.697946" lon="0.673990">
        <ele>2262.6</ele>
        <time>2013-05-26T10:34:50Z</time>
      </trkpt>
      <trkpt lat="42.697852" lon="0.674007">
        <ele>2264.5</ele>
        <time>2013-05-26T10:35:07Z</time>
      </trkpt>
      <trkpt lat="42.697765" lon="0.673988">
        <ele>2266.9</ele>
        <time>2013-05-26T10:35:24Z</time>
      </trkpt>
      <trkpt lat="42.697666" lon="0.674018">
        <ele>2269.8</ele>
        <time>2013-05-26T10:35:48Z</time>
      </trkpt>
      <trkpt lat="42.697564" lon="0.674026">
        <ele>2272.7</ele>
        <time>2013-05-26T10:36:06Z</time>
      </trkpt>
      <trkpt lat="42.697481" lon="0.674028">
        <ele>2275.6</ele>
        <time>2013-05-26T10:36:25Z</time>
      </trkpt>
      <trkpt lat="42.697425" lon="0.674089">
        <ele>2279.4</ele>
        <time>2013-05-26T10:36:49Z</time>
      </trkpt>
      <trkpt lat="42.697357" lon="0.674161">
        <ele>2282.8</ele>
        <time>2013-05-26T10:37:10Z</time>
      </trkpt>
      <trkpt lat="42.697264" lon="0.674179">
        <ele>2283.8</ele>
        <time>2013-05-26T10:37:24Z</time>
      </trkpt>
      <trkpt lat="42.697169" lon="0.674158">
        <ele>2284.2</ele>
        <time>2013-05-26T10:37:37Z</time>
      </trkpt>
      <trkpt lat="42.697082" lon="0.674135">
        <ele>2284.7</ele>
        <time>2013-05-26T10:37:49Z</time>
      </trkpt>
      <trkpt lat="42.697009" lon="0.674098">
        <ele>2284.2</ele>
        <time>2013-05-26T10:38:02Z</time>
      </trkpt>
      <trkpt lat="42.696918" lon="0.674065">
        <ele>2284.7</ele>
        <time>2013-05-26T10:38:13Z</time>
      </trkpt>
      <trkpt lat="42.696827" lon="0.674051">
        <ele>2284.2</ele>
        <time>2013-05-26T10:38:24Z</time>
      </trkpt>
      <trkpt lat="42.696737" lon="0.674054">
        <ele>2286.1</ele>
        <time>2013-05-26T10:38:39Z</time>
      </trkpt>
      <trkpt lat="42.696643" lon="0.674076">
        <ele>2289.0</ele>
        <time>2013-05-26T10:38:54Z</time>
      </trkpt>
      <trkpt lat="42.696554" lon="0.674108">
        <ele>2291.4</ele>
        <time>2013-05-26T10:39:08Z</time>
      </trkpt>
      <trkpt lat="42.696469" lon="0.674134">
        <ele>2294.3</ele>
        <time>2013-05-26T10:39:26Z</time>
      </trkpt>
      <trkpt lat="42.696375" lon="0.674157">
        <ele>2297.2</ele>
        <time>2013-05-26T10:39:43Z</time>
      </trkpt>
      <trkpt lat="42.696283" lon="0.674158">
        <ele>2299.1</ele>
        <time>2013-05-26T10:39:59Z</time>
      </trkpt>
      <trkpt lat="42.696190" lon="0.674156">
        <ele>2300.6</ele>
        <time>2013-05-26T10:40:12Z</time>
      </trkpt>
      <trkpt lat="42.696099" lon="0.674169">
        <ele>2302.5</ele>
        <time>2013-05-26T10:40:26Z</time>
      </trkpt>
      <trkpt lat="42.696014" lon="0.674165">
        <ele>2305.4</ele>
        <time>2013-05-26T10:40:42Z</time>
      </trkpt>
      <trkpt lat="42.695912" lon="0.674191">
        <ele>2307.8</ele>
        <time>2013-05-26T10:40:59Z</time>
      </trkpt>
      <trkpt lat="42.695828" lon="0.674255">
        <ele>2310.2</ele>
        <time>2013-05-26T10:41:18Z</time>
      </trkpt>
      <trkpt lat="42.695756" lon="0.674342">
        <ele>2312.1</ele>
        <time>2013-05-26T10:41:36Z</time>
      </trkpt>
      <trkpt lat="42.695677" lon="0.674318">
        <ele>2315.0</ele>
        <time>2013-05-26T10:42:24Z</time>
      </trkpt>
      <trkpt lat="42.695586" lon="0.674361">
        <ele>2317.9</ele>
        <time>2013-05-26T10:42:39Z</time>
      </trkpt>
      <trkpt lat="42.695514" lon="0.674438">
        <ele>2319.8</ele>
        <time>2013-05-26T10:42:54Z</time>
      </trkpt>
      <trkpt lat="42.695422" lon="0.674503">
        <ele>2322.2</ele>
        <time>2013-05-26T10:43:09Z</time>
      </trkpt>
      <trkpt lat="42.695335" lon="0.674560">
        <ele>2324.1</ele>
        <time>2013-05-26T10:43:22Z</time>
      </trkpt>
      <trkpt lat="42.695244" lon="0.674604">
        <ele>2326.1</ele>
        <time>2013-05-26T10:43:36Z</time>
      </trkpt>
      <trkpt lat="42.695156" lon="0.674658">
        <ele>2327.5</ele>
        <time>2013-05-26T10:43:49Z</time>
      </trkpt>
      <trkpt lat="42.695072" lon="0.674709">
        <ele>2328.9</ele>
        <time>2013-05-26T10:44:02Z</time>
      </trkpt>
      <trkpt lat="42.694992" lon="0.674764">
        <ele>2330.4</ele>
        <time>2013-05-26T10:44:19Z</time>
      </trkpt>
      <trkpt lat="42.694914" lon="0.674812">
        <ele>2332.8</ele>
        <time>2013-05-26T10:44:34Z</time>
      </trkpt>
      <trkpt lat="42.694842" lon="0.674893">
        <ele>2335.2</ele>
        <time>2013-05-26T10:44:50Z</time>
      </trkpt>
      <trkpt lat="42.694767" lon="0.674945">
        <ele>2339.0</ele>
        <time>2013-05-26T10:45:11Z</time>
      </trkpt>
      <trkpt lat="42.694733" lon="0.675065">
        <ele>2340.9</ele>
        <time>2013-05-26T10:45:28Z</time>
      </trkpt>
      <trkpt lat="42.694688" lon="0.675165">
        <ele>2342.9</ele>
        <time>2013-05-26T10:45:45Z</time>
      </trkpt>
      <trkpt lat="42.694630" lon="0.675238">
        <ele>2346.2</ele>
        <time>2013-05-26T10:46:48Z</time>
      </trkpt>
      <trkpt lat="42.694553" lon="0.675316">
        <ele>2348.6</ele>
        <time>2013-05-26T10:47:06Z</time>
      </trkpt>
      <trkpt lat="42.694497" lon="0.675421">
        <ele>2350.6</ele>
        <time>2013-05-26T10:47:19Z</time>
      </trkpt>
      <trkpt lat="42.694448" lon="0.675514">
        <ele>2353.0</ele>
        <time>2013-05-26T10:47:31Z</time>
      </trkpt>
      <trkpt lat="42.694359" lon="0.675584">
        <ele>2356.3</ele>
        <time>2013-05-26T10:47:45Z</time>
      </trkpt>
      <trkpt lat="42.694274" lon="0.675664">
        <ele>2360.2</ele>
        <time>2013-05-26T10:48:04Z</time>
      </trkpt>
      <trkpt lat="42.694190" lon="0.675824">
        <ele>2365.9</ele>
        <time>2013-05-26T10:50:14Z</time>
      </trkpt>
      <trkpt lat="42.694087" lon="0.675847">
        <ele>2367.9</ele>
        <time>2013-05-26T10:50:25Z</time>
      </trkpt>
      <trkpt lat="42.693989" lon="0.675836">
        <ele>2369.8</ele>
        <time>2013-05-26T10:50:35Z</time>
      </trkpt>
      <trkpt lat="42.693883" lon="0.675845">
        <ele>2372.2</ele>
        <time>2013-05-26T10:50:47Z</time>
      </trkpt>
      <trkpt lat="42.693796" lon="0.675826">
        <ele>2374.6</ele>
        <time>2013-05-26T10:51:00Z</time>
      </trkpt>
      <trkpt lat="42.693703" lon="0.675851">
        <ele>2377.0</ele>
        <time>2013-05-26T10:51:13Z</time>
      </trkpt>
      <trkpt lat="42.693625" lon="0.675869">
        <ele>2379.9</ele>
        <time>2013-05-26T10:51:25Z</time>
      </trkpt>
      <trkpt lat="42.693532" lon="0.675878">
        <ele>2382.8</ele>
        <time>2013-05-26T10:51:37Z</time>
      </trkpt>
      <trkpt lat="42.693450" lon="0.675916">
        <ele>2384.7</ele>
        <time>2013-05-26T10:51:50Z</time>
      </trkpt>
      <trkpt lat="42.693363" lon="0.675923">
        <ele>2387.6</ele>
        <time>2013-05-26T10:52:04Z</time>
      </trkpt>
      <trkpt lat="42.693283" lon="0.675953">
        <ele>2390.0</ele>
        <time>2013-05-26T10:52:18Z</time>
      </trkpt>
      <trkpt lat="42.693196" lon="0.675977">
        <ele>2392.4</ele>
        <time>2013-05-26T10:52:36Z</time>
      </trkpt>
      <trkpt lat="42.693134" lon="0.676061">
        <ele>2394.8</ele>
        <time>2013-05-26T10:52:56Z</time>
      </trkpt>
      <trkpt lat="42.693059" lon="0.676097">
        <ele>2396.7</ele>
        <time>2013-05-26T10:53:13Z</time>
      </trkpt>
      <trkpt lat="42.692971" lon="0.676116">
        <ele>2400.1</ele>
        <time>2013-05-26T10:53:31Z</time>
      </trkpt>
      <trkpt lat="42.692883" lon="0.676149">
        <ele>2401.5</ele>
        <time>2013-05-26T10:53:44Z</time>
      </trkpt>
      <trkpt lat="42.692788" lon="0.676184">
        <ele>2403.9</ele>
        <time>2013-05-26T10:53:58Z</time>
      </trkpt>
      <trkpt lat="42.692698" lon="0.676186">
        <ele>2405.8</ele>
        <time>2013-05-26T10:54:10Z</time>
      </trkpt>
      <trkpt lat="42.692604" lon="0.676212">
        <ele>2407.3</ele>
        <time>2013-05-26T10:54:23Z</time>
      </trkpt>
      <trkpt lat="42.692513" lon="0.676210">
        <ele>2409.7</ele>
        <time>2013-05-26T10:54:39Z</time>
      </trkpt>
      <trkpt lat="42.692419" lon="0.676232">
        <ele>2412.6</ele>
        <time>2013-05-26T10:54:56Z</time>
      </trkpt>
      <trkpt lat="42.692330" lon="0.676253">
        <ele>2415.4</ele>
        <time>2013-05-26T10:55:16Z</time>
      </trkpt>
      <trkpt lat="42.692250" lon="0.676238">
        <ele>2418.8</ele>
        <time>2013-05-26T10:55:35Z</time>
      </trkpt>
      <trkpt lat="42.692164" lon="0.676255">
        <ele>2422.2</ele>
        <time>2013-05-26T10:55:55Z</time>
      </trkpt>
      <trkpt lat="42.692097" lon="0.676331">
        <ele>2425.1</ele>
        <time>2013-05-26T10:56:13Z</time>
      </trkpt>
      <trkpt lat="42.692009" lon="0.676379">
        <ele>2427.5</ele>
        <time>2013-05-26T10:56:30Z</time>
      </trkpt>
      <trkpt lat="42.691925" lon="0.676424">
        <ele>2429.9</ele>
        <time>2013-05-26T10:56:45Z</time>
      </trkpt>
      <trkpt lat="42.691836" lon="0.676414">
        <ele>2432.8</ele>
        <time>2013-05-26T10:57:01Z</time>
      </trkpt>
      <trkpt lat="42.691739" lon="0.676418">
        <ele>2436.6</ele>
        <time>2013-05-26T10:57:27Z</time>
      </trkpt>
      <trkpt lat="42.691640" lon="0.676395">
        <ele>2440.0</ele>
        <time>2013-05-26T10:57:47Z</time>
      </trkpt>
      <trkpt lat="42.691555" lon="0.676380">
        <ele>2442.4</ele>
        <time>2013-05-26T10:58:06Z</time>
      </trkpt>
      <trkpt lat="42.691472" lon="0.676430">
        <ele>2446.7</ele>
        <time>2013-05-26T10:58:34Z</time>
      </trkpt>
      <trkpt lat="42.691397" lon="0.676448">
        <ele>2450.5</ele>
        <time>2013-05-26T10:58:59Z</time>
      </trkpt>
      <trkpt lat="42.691321" lon="0.676483">
        <ele>2453.9</ele>
        <time>2013-05-26T10:59:31Z</time>
      </trkpt>
      <trkpt lat="42.691245" lon="0.676529">
        <ele>2456.8</ele>
        <time>2013-05-26T10:59:56Z</time>
      </trkpt>
      <trkpt lat="42.691161" lon="0.676599">
        <ele>2460.1</ele>
        <time>2013-05-26T11:00:14Z</time>
      </trkpt>
      <trkpt lat="42.691078" lon="0.676651">
        <ele>2461.1</ele>
        <time>2013-05-26T11:00:32Z</time>
      </trkpt>
      <trkpt lat="42.690992" lon="0.676673">
        <ele>2463.5</ele>
        <time>2013-05-26T11:00:48Z</time>
      </trkpt>
      <trkpt lat="42.690911" lon="0.676617">
        <ele>2464.0</ele>
        <time>2013-05-26T11:01:01Z</time>
      </trkpt>
      <trkpt lat="42.690839" lon="0.676585">
        <ele>2465.4</ele>
        <time>2013-05-26T11:01:13Z</time>
      </trkpt>
      <trkpt lat="42.690771" lon="0.676500">
        <ele>2466.9</ele>
        <time>2013-05-26T11:01:25Z</time>
      </trkpt>
      <trkpt lat="42.690682" lon="0.676406">
        <ele>2469.3</ele>
        <time>2013-05-26T11:09:58Z</time>
        <name>Soum de l Escalette</name>
      </trkpt>
      <trkpt lat="42.690695" lon="0.676397">
        <ele>2469.3</ele>
        <time>2013-05-26T11:15:22Z</time>
      </trkpt>
      <trkpt lat="42.690717" lon="0.676389">
        <ele>2466.9</ele>
        <time>2013-05-26T11:19:04Z</time>
      </trkpt>
      <trkpt lat="42.690803" lon="0.676445">
        <ele>2465.4</ele>
        <time>2013-05-26T11:19:15Z</time>
      </trkpt>
      <trkpt lat="42.690890" lon="0.676490">
        <ele>2464.5</ele>
        <time>2013-05-26T11:19:25Z</time>
      </trkpt>
      <trkpt lat="42.690985" lon="0.676508">
        <ele>2464.0</ele>
        <time>2013-05-26T11:19:34Z</time>
      </trkpt>
      <trkpt lat="42.691086" lon="0.676512">
        <ele>2460.1</ele>
        <time>2013-05-26T11:19:42Z</time>
      </trkpt>
      <trkpt lat="42.691166" lon="0.676495">
        <ele>2457.8</ele>
        <time>2013-05-26T11:19:52Z</time>
      </trkpt>
      <trkpt lat="42.691245" lon="0.676418">
        <ele>2456.3</ele>
        <time>2013-05-26T11:20:01Z</time>
      </trkpt>
      <trkpt lat="42.691335" lon="0.676441">
        <ele>2452.9</ele>
        <time>2013-05-26T11:20:10Z</time>
      </trkpt>
      <trkpt lat="42.691435" lon="0.676427">
        <ele>2447.6</ele>
        <time>2013-05-26T11:20:19Z</time>
      </trkpt>
      <trkpt lat="42.691528" lon="0.676421">
        <ele>2444.8</ele>
        <time>2013-05-26T11:20:27Z</time>
      </trkpt>
      <trkpt lat="42.691626" lon="0.676404">
        <ele>2440.4</ele>
        <time>2013-05-26T11:20:36Z</time>
      </trkpt>
      <trkpt lat="42.691716" lon="0.676368">
        <ele>2436.6</ele>
        <time>2013-05-26T11:20:46Z</time>
      </trkpt>
      <trkpt lat="42.691829" lon="0.676336">
        <ele>2432.3</ele>
        <time>2013-05-26T11:20:57Z</time>
      </trkpt>
      <trkpt lat="42.691927" lon="0.676317">
        <ele>2428.4</ele>
        <time>2013-05-26T11:21:07Z</time>
      </trkpt>
      <trkpt lat="42.692017" lon="0.676301">
        <ele>2426.0</ele>
        <time>2013-05-26T11:21:17Z</time>
      </trkpt>
      <trkpt lat="42.692103" lon="0.676282">
        <ele>2422.7</ele>
        <time>2013-05-26T11:21:26Z</time>
      </trkpt>
      <trkpt lat="42.692196" lon="0.676203">
        <ele>2419.3</ele>
        <time>2013-05-26T11:21:36Z</time>
      </trkpt>
      <trkpt lat="42.692300" lon="0.676201">
        <ele>2415.0</ele>
        <time>2013-05-26T11:21:46Z</time>
      </trkpt>
      <trkpt lat="42.692382" lon="0.676233">
        <ele>2413.1</ele>
        <time>2013-05-26T11:21:58Z</time>
      </trkpt>
      <trkpt lat="42.692473" lon="0.676200">
        <ele>2410.6</ele>
        <time>2013-05-26T11:22:08Z</time>
      </trkpt>
      <trkpt lat="42.692561" lon="0.676189">
        <ele>2407.8</ele>
        <time>2013-05-26T11:22:17Z</time>
      </trkpt>
      <trkpt lat="42.692665" lon="0.676183">
        <ele>2405.8</ele>
        <time>2013-05-26T11:22:26Z</time>
      </trkpt>
      <trkpt lat="42.692757" lon="0.676139">
        <ele>2403.9</ele>
        <time>2013-05-26T11:22:36Z</time>
      </trkpt>
      <trkpt lat="42.692867" lon="0.676136">
        <ele>2401.5</ele>
        <time>2013-05-26T11:22:46Z</time>
      </trkpt>
      <trkpt lat="42.692968" lon="0.676127">
        <ele>2400.1</ele>
        <time>2013-05-26T11:22:55Z</time>
      </trkpt>
      <trkpt lat="42.693070" lon="0.676118">
        <ele>2397.2</ele>
        <time>2013-05-26T11:23:04Z</time>
      </trkpt>
      <trkpt lat="42.693172" lon="0.676111">
        <ele>2395.3</ele>
        <time>2013-05-26T11:23:25Z</time>
      </trkpt>
      <trkpt lat="42.693266" lon="0.676131">
        <ele>2392.4</ele>
        <time>2013-05-26T11:23:41Z</time>
      </trkpt>
      <trkpt lat="42.693366" lon="0.676127">
        <ele>2390.9</ele>
        <time>2013-05-26T11:23:51Z</time>
      </trkpt>
      <trkpt lat="42.693463" lon="0.676163">
        <ele>2390.5</ele>
        <time>2013-05-26T11:24:01Z</time>
      </trkpt>
      <trkpt lat="42.693554" lon="0.676185">
        <ele>2389.5</ele>
        <time>2013-05-26T11:24:10Z</time>
      </trkpt>
      <trkpt lat="42.693651" lon="0.676166">
        <ele>2387.1</ele>
        <time>2013-05-26T11:24:20Z</time>
      </trkpt>
      <trkpt lat="42.693759" lon="0.676173">
        <ele>2385.2</ele>
        <time>2013-05-26T11:24:31Z</time>
      </trkpt>
      <trkpt lat="42.693851" lon="0.676175">
        <ele>2382.8</ele>
        <time>2013-05-26T11:24:42Z</time>
      </trkpt>
      <trkpt lat="42.693948" lon="0.676183">
        <ele>2380.8</ele>
        <time>2013-05-26T11:24:52Z</time>
      </trkpt>
      <trkpt lat="42.694048" lon="0.676164">
        <ele>2377.0</ele>
        <time>2013-05-26T11:25:02Z</time>
      </trkpt>
      <trkpt lat="42.694123" lon="0.676105">
        <ele>2374.6</ele>
        <time>2013-05-26T11:25:13Z</time>
      </trkpt>
      <trkpt lat="42.694184" lon="0.676012">
        <ele>2369.3</ele>
        <time>2013-05-26T11:25:25Z</time>
      </trkpt>
      <trkpt lat="42.694212" lon="0.675889">
        <ele>2366.4</ele>
        <time>2013-05-26T11:25:38Z</time>
      </trkpt>
      <trkpt lat="42.694260" lon="0.675766">
        <ele>2362.1</ele>
        <time>2013-05-26T11:25:48Z</time>
      </trkpt>
      <trkpt lat="42.694315" lon="0.675665">
        <ele>2357.8</ele>
        <time>2013-05-26T11:26:02Z</time>
      </trkpt>
      <trkpt lat="42.694353" lon="0.675540">
        <ele>2354.9</ele>
        <time>2013-05-26T11:26:15Z</time>
      </trkpt>
      <trkpt lat="42.694415" lon="0.675444">
        <ele>2352.0</ele>
        <time>2013-05-26T11:26:24Z</time>
      </trkpt>
      <trkpt lat="42.694481" lon="0.675344">
        <ele>2350.1</ele>
        <time>2013-05-26T11:26:33Z</time>
      </trkpt>
      <trkpt lat="42.694553" lon="0.675252">
        <ele>2347.7</ele>
        <time>2013-05-26T11:26:44Z</time>
      </trkpt>
      <trkpt lat="42.694621" lon="0.675174">
        <ele>2346.2</ele>
        <time>2013-05-26T11:26:53Z</time>
      </trkpt>
      <trkpt lat="42.694665" lon="0.675059">
        <ele>2342.9</ele>
        <time>2013-05-26T11:27:02Z</time>
      </trkpt>
      <trkpt lat="42.694718" lon="0.674942">
        <ele>2340.0</ele>
        <time>2013-05-26T11:27:11Z</time>
      </trkpt>
      <trkpt lat="42.694793" lon="0.674862">
        <ele>2336.1</ele>
        <time>2013-05-26T11:27:21Z</time>
      </trkpt>
      <trkpt lat="42.694883" lon="0.674804">
        <ele>2333.3</ele>
        <time>2013-05-26T11:27:30Z</time>
      </trkpt>
      <trkpt lat="42.694958" lon="0.674744">
        <ele>2331.8</ele>
        <time>2013-05-26T11:27:38Z</time>
      </trkpt>
      <trkpt lat="42.695042" lon="0.674682">
        <ele>2328.9</ele>
        <time>2013-05-26T11:27:47Z</time>
      </trkpt>
      <trkpt lat="42.695138" lon="0.674642">
        <ele>2328.0</ele>
        <time>2013-05-26T11:27:55Z</time>
      </trkpt>
      <trkpt lat="42.695224" lon="0.674589">
        <ele>2326.5</ele>
        <time>2013-05-26T11:28:03Z</time>
      </trkpt>
      <trkpt lat="42.695314" lon="0.674540">
        <ele>2325.6</ele>
        <time>2013-05-26T11:28:11Z</time>
      </trkpt>
      <trkpt lat="42.695398" lon="0.674493">
        <ele>2323.2</ele>
        <time>2013-05-26T11:28:19Z</time>
      </trkpt>
      <trkpt lat="42.695487" lon="0.674434">
        <ele>2321.2</ele>
        <time>2013-05-26T11:28:28Z</time>
      </trkpt>
      <trkpt lat="42.695569" lon="0.674374">
        <ele>2319.3</ele>
        <time>2013-05-26T11:28:36Z</time>
      </trkpt>
      <trkpt lat="42.695621" lon="0.674322">
        <ele>2315.9</ele>
        <time>2013-05-26T11:29:25Z</time>
      </trkpt>
      <trkpt lat="42.695713" lon="0.674326">
        <ele>2315.9</ele>
        <time>2013-05-26T11:30:58Z</time>
      </trkpt>
      <trkpt lat="42.695799" lon="0.674266">
        <ele>2313.1</ele>
        <time>2013-05-26T11:31:08Z</time>
      </trkpt>
      <trkpt lat="42.695887" lon="0.674209">
        <ele>2310.7</ele>
        <time>2013-05-26T11:31:18Z</time>
      </trkpt>
      <trkpt lat="42.695979" lon="0.674196">
        <ele>2307.8</ele>
        <time>2013-05-26T11:31:27Z</time>
      </trkpt>
      <trkpt lat="42.696074" lon="0.674160">
        <ele>2305.4</ele>
        <time>2013-05-26T11:31:37Z</time>
      </trkpt>
      <trkpt lat="42.696168" lon="0.674145">
        <ele>2303.0</ele>
        <time>2013-05-26T11:31:46Z</time>
      </trkpt>
      <trkpt lat="42.696257" lon="0.674136">
        <ele>2300.1</ele>
        <time>2013-05-26T11:31:54Z</time>
      </trkpt>
      <trkpt lat="42.696354" lon="0.674132">
        <ele>2298.2</ele>
        <time>2013-05-26T11:32:03Z</time>
      </trkpt>
      <trkpt lat="42.696445" lon="0.674098">
        <ele>2295.8</ele>
        <time>2013-05-26T11:32:12Z</time>
      </trkpt>
      <trkpt lat="42.696537" lon="0.674083">
        <ele>2292.9</ele>
        <time>2013-05-26T11:32:21Z</time>
      </trkpt>
      <trkpt lat="42.696633" lon="0.674063">
        <ele>2290.0</ele>
        <time>2013-05-26T11:32:30Z</time>
      </trkpt>
      <trkpt lat="42.696720" lon="0.674049">
        <ele>2287.6</ele>
        <time>2013-05-26T11:33:36Z</time>
      </trkpt>
      <trkpt lat="42.696822" lon="0.674040">
        <ele>2285.7</ele>
        <time>2013-05-26T11:34:08Z</time>
      </trkpt>
      <trkpt lat="42.696900" lon="0.674049">
        <ele>2286.1</ele>
        <time>2013-05-26T11:35:15Z</time>
      </trkpt>
      <trkpt lat="42.696993" lon="0.674074">
        <ele>2285.2</ele>
        <time>2013-05-26T11:35:25Z</time>
      </trkpt>
      <trkpt lat="42.697076" lon="0.674101">
        <ele>2285.7</ele>
        <time>2013-05-26T11:35:35Z</time>
      </trkpt>
      <trkpt lat="42.697172" lon="0.674124">
        <ele>2285.2</ele>
        <time>2013-05-26T11:35:50Z</time>
      </trkpt>
      <trkpt lat="42.697259" lon="0.674159">
        <ele>2284.7</ele>
        <time>2013-05-26T11:36:00Z</time>
      </trkpt>
      <trkpt lat="42.697357" lon="0.674203">
        <ele>2283.8</ele>
        <time>2013-05-26T11:36:10Z</time>
      </trkpt>
      <trkpt lat="42.697430" lon="0.674278">
        <ele>2282.8</ele>
        <time>2013-05-26T11:36:22Z</time>
      </trkpt>
      <trkpt lat="42.697547" lon="0.674306">
        <ele>2283.3</ele>
        <time>2013-05-26T12:21:01Z</time>
      </trkpt>
      <trkpt lat="42.697602" lon="0.674206">
        <ele>2279.4</ele>
        <time>2013-05-26T12:21:16Z</time>
      </trkpt>
      <trkpt lat="42.697679" lon="0.674143">
        <ele>2276.1</ele>
        <time>2013-05-26T12:21:30Z</time>
      </trkpt>
      <trkpt lat="42.697736" lon="0.674056">
        <ele>2272.2</ele>
        <time>2013-05-26T12:21:45Z</time>
      </trkpt>
      <trkpt lat="42.697834" lon="0.674028">
        <ele>2269.3</ele>
        <time>2013-05-26T12:21:57Z</time>
      </trkpt>
      <trkpt lat="42.697930" lon="0.674028">
        <ele>2266.9</ele>
        <time>2013-05-26T12:22:07Z</time>
      </trkpt>
      <trkpt lat="42.698026" lon="0.674018">
        <ele>2265.0</ele>
        <time>2013-05-26T12:22:17Z</time>
      </trkpt>
      <trkpt lat="42.698130" lon="0.674004">
        <ele>2263.6</ele>
        <time>2013-05-26T12:22:27Z</time>
      </trkpt>
      <trkpt lat="42.698229" lon="0.673989">
        <ele>2261.6</ele>
        <time>2013-05-26T12:22:37Z</time>
      </trkpt>
      <trkpt lat="42.698319" lon="0.673983">
        <ele>2259.7</ele>
        <time>2013-05-26T12:22:47Z</time>
      </trkpt>
      <trkpt lat="42.698412" lon="0.673954">
        <ele>2257.8</ele>
        <time>2013-05-26T12:22:57Z</time>
      </trkpt>
      <trkpt lat="42.698507" lon="0.673956">
        <ele>2255.4</ele>
        <time>2013-05-26T12:23:11Z</time>
      </trkpt>
      <trkpt lat="42.698614" lon="0.673921">
        <ele>2253.5</ele>
        <time>2013-05-26T12:23:22Z</time>
      </trkpt>
      <trkpt lat="42.698709" lon="0.673915">
        <ele>2250.6</ele>
        <time>2013-05-26T12:23:33Z</time>
      </trkpt>
      <trkpt lat="42.698790" lon="0.673885">
        <ele>2246.7</ele>
        <time>2013-05-26T12:23:43Z</time>
      </trkpt>
      <trkpt lat="42.698882" lon="0.673906">
        <ele>2243.9</ele>
        <time>2013-05-26T12:23:52Z</time>
      </trkpt>
      <trkpt lat="42.698978" lon="0.673911">
        <ele>2241.9</ele>
        <time>2013-05-26T12:24:02Z</time>
      </trkpt>
      <trkpt lat="42.699076" lon="0.673946">
        <ele>2241.0</ele>
        <time>2013-05-26T12:24:12Z</time>
      </trkpt>
      <trkpt lat="42.699168" lon="0.673959">
        <ele>2239.5</ele>
        <time>2013-05-26T12:24:22Z</time>
      </trkpt>
      <trkpt lat="42.699266" lon="0.673968">
        <ele>2237.6</ele>
        <time>2013-05-26T12:24:32Z</time>
      </trkpt>
      <trkpt lat="42.699354" lon="0.673973">
        <ele>2235.7</ele>
        <time>2013-05-26T12:24:43Z</time>
      </trkpt>
      <trkpt lat="42.699448" lon="0.673971">
        <ele>2232.8</ele>
        <time>2013-05-26T12:24:53Z</time>
      </trkpt>
      <trkpt lat="42.699543" lon="0.673989">
        <ele>2231.4</ele>
        <time>2013-05-26T12:25:03Z</time>
      </trkpt>
      <trkpt lat="42.699628" lon="0.674049">
        <ele>2229.4</ele>
        <time>2013-05-26T12:25:14Z</time>
      </trkpt>
      <trkpt lat="42.699704" lon="0.674111">
        <ele>2227.0</ele>
        <time>2013-05-26T12:25:23Z</time>
      </trkpt>
      <trkpt lat="42.699779" lon="0.674162">
        <ele>2223.7</ele>
        <time>2013-05-26T12:25:33Z</time>
      </trkpt>
      <trkpt lat="42.699853" lon="0.674227">
        <ele>2221.3</ele>
        <time>2013-05-26T12:25:56Z</time>
      </trkpt>
      <trkpt lat="42.699926" lon="0.674314">
        <ele>2218.9</ele>
        <time>2013-05-26T12:26:05Z</time>
      </trkpt>
      <trkpt lat="42.700000" lon="0.674391">
        <ele>2216.9</ele>
        <time>2013-05-26T12:26:14Z</time>
      </trkpt>
      <trkpt lat="42.700062" lon="0.674466">
        <ele>2214.5</ele>
        <time>2013-05-26T12:26:22Z</time>
      </trkpt>
      <trkpt lat="42.700142" lon="0.674510">
        <ele>2211.2</ele>
        <time>2013-05-26T12:26:30Z</time>
      </trkpt>
      <trkpt lat="42.700232" lon="0.674556">
        <ele>2207.3</ele>
        <time>2013-05-26T12:26:39Z</time>
      </trkpt>
      <trkpt lat="42.700319" lon="0.674603">
        <ele>2204.4</ele>
        <time>2013-05-26T12:26:48Z</time>
      </trkpt>
      <trkpt lat="42.700412" lon="0.674643">
        <ele>2200.6</ele>
        <time>2013-05-26T12:26:58Z</time>
      </trkpt>
      <trkpt lat="42.700505" lon="0.674702">
        <ele>2197.2</ele>
        <time>2013-05-26T12:27:08Z</time>
      </trkpt>
      <trkpt lat="42.700562" lon="0.674809">
        <ele>2195.8</ele>
        <time>2013-05-26T12:27:18Z</time>
      </trkpt>
      <trkpt lat="42.700594" lon="0.674887">
        <ele>2195.8</ele>
        <time>2013-05-26T12:28:08Z</time>
      </trkpt>
      <trkpt lat="42.700688" lon="0.674901">
        <ele>2192.4</ele>
        <time>2013-05-26T12:28:16Z</time>
      </trkpt>
      <trkpt lat="42.700778" lon="0.674916">
        <ele>2189.1</ele>
        <time>2013-05-26T12:28:24Z</time>
      </trkpt>
      <trkpt lat="42.700861" lon="0.674928">
        <ele>2186.2</ele>
        <time>2013-05-26T12:28:32Z</time>
      </trkpt>
      <trkpt lat="42.700957" lon="0.674941">
        <ele>2182.3</ele>
        <time>2013-05-26T12:28:40Z</time>
      </trkpt>
      <trkpt lat="42.701045" lon="0.674980">
        <ele>2179.4</ele>
        <time>2013-05-26T12:28:48Z</time>
      </trkpt>
      <trkpt lat="42.701133" lon="0.675019">
        <ele>2175.6</ele>
        <time>2013-05-26T12:28:56Z</time>
      </trkpt>
      <trkpt lat="42.701218" lon="0.675084">
        <ele>2173.2</ele>
        <time>2013-05-26T12:29:04Z</time>
      </trkpt>
      <trkpt lat="42.701308" lon="0.675138">
        <ele>2171.3</ele>
        <time>2013-05-26T12:29:12Z</time>
      </trkpt>
      <trkpt lat="42.701405" lon="0.675189">
        <ele>2167.4</ele>
        <time>2013-05-26T12:29:20Z</time>
      </trkpt>
      <trkpt lat="42.701501" lon="0.675247">
        <ele>2165.0</ele>
        <time>2013-05-26T12:29:29Z</time>
      </trkpt>
      <trkpt lat="42.701603" lon="0.675298">
        <ele>2161.7</ele>
        <time>2013-05-26T12:29:38Z</time>
      </trkpt>
      <trkpt lat="42.701683" lon="0.675350">
        <ele>2158.8</ele>
        <time>2013-05-26T12:29:46Z</time>
      </trkpt>
      <trkpt lat="42.701789" lon="0.675382">
        <ele>2155.4</ele>
        <time>2013-05-26T12:29:55Z</time>
      </trkpt>
      <trkpt lat="42.701875" lon="0.675415">
        <ele>2152.1</ele>
        <time>2013-05-26T12:30:04Z</time>
      </trkpt>
      <trkpt lat="42.701957" lon="0.675475">
        <ele>2149.6</ele>
        <time>2013-05-26T12:30:13Z</time>
      </trkpt>
      <trkpt lat="42.702052" lon="0.675531">
        <ele>2145.3</ele>
        <time>2013-05-26T12:30:23Z</time>
      </trkpt>
      <trkpt lat="42.702160" lon="0.675585">
        <ele>2142.4</ele>
        <time>2013-05-26T12:30:32Z</time>
      </trkpt>
      <trkpt lat="42.702252" lon="0.675624">
        <ele>2140.0</ele>
        <time>2013-05-26T12:30:40Z</time>
      </trkpt>
      <trkpt lat="42.702339" lon="0.675692">
        <ele>2138.1</ele>
        <time>2013-05-26T12:30:49Z</time>
      </trkpt>
      <trkpt lat="42.702408" lon="0.675777">
        <ele>2135.7</ele>
        <time>2013-05-26T12:30:57Z</time>
      </trkpt>
      <trkpt lat="42.702495" lon="0.675814">
        <ele>2131.9</ele>
        <time>2013-05-26T12:31:06Z</time>
      </trkpt>
      <trkpt lat="42.702615" lon="0.675820">
        <ele>2129.5</ele>
        <time>2013-05-26T12:31:15Z</time>
      </trkpt>
      <trkpt lat="42.702714" lon="0.675824">
        <ele>2126.6</ele>
        <time>2013-05-26T12:31:25Z</time>
      </trkpt>
      <trkpt lat="42.702808" lon="0.675865">
        <ele>2122.7</ele>
        <time>2013-05-26T12:31:36Z</time>
      </trkpt>
      <trkpt lat="42.702894" lon="0.675917">
        <ele>2119.8</ele>
        <time>2013-05-26T12:31:46Z</time>
      </trkpt>
      <trkpt lat="42.702965" lon="0.675961">
        <ele>2117.4</ele>
        <time>2013-05-26T12:31:55Z</time>
      </trkpt>
      <trkpt lat="42.703055" lon="0.676032">
        <ele>2114.6</ele>
        <time>2013-05-26T12:32:04Z</time>
      </trkpt>
      <trkpt lat="42.703130" lon="0.676109">
        <ele>2111.7</ele>
        <time>2013-05-26T12:32:13Z</time>
      </trkpt>
      <trkpt lat="42.703181" lon="0.676231">
        <ele>2110.2</ele>
        <time>2013-05-26T12:32:22Z</time>
      </trkpt>
      <trkpt lat="42.703212" lon="0.676354">
        <ele>2107.8</ele>
        <time>2013-05-26T12:32:32Z</time>
      </trkpt>
      <trkpt lat="42.703241" lon="0.676479">
        <ele>2103.0</ele>
        <time>2013-05-26T12:32:45Z</time>
      </trkpt>
      <trkpt lat="42.703264" lon="0.676589">
        <ele>2097.7</ele>
        <time>2013-05-26T12:32:57Z</time>
      </trkpt>
      <trkpt lat="42.703303" lon="0.676711">
        <ele>2092.4</ele>
        <time>2013-05-26T12:33:08Z</time>
      </trkpt>
      <trkpt lat="42.703276" lon="0.676841">
        <ele>2090.0</ele>
        <time>2013-05-26T12:33:49Z</time>
      </trkpt>
      <trkpt lat="42.703254" lon="0.676974">
        <ele>2088.6</ele>
        <time>2013-05-26T12:33:59Z</time>
      </trkpt>
      <trkpt lat="42.703226" lon="0.677087">
        <ele>2085.7</ele>
        <time>2013-05-26T12:34:08Z</time>
      </trkpt>
      <trkpt lat="42.703212" lon="0.677194">
        <ele>2083.8</ele>
        <time>2013-05-26T12:34:35Z</time>
      </trkpt>
      <trkpt lat="42.703241" lon="0.677293">
        <ele>2079.9</ele>
        <time>2013-05-26T12:34:48Z</time>
      </trkpt>
      <trkpt lat="42.703302" lon="0.677372">
        <ele>2075.6</ele>
        <time>2013-05-26T12:35:00Z</time>
      </trkpt>
      <trkpt lat="42.703369" lon="0.677462">
        <ele>2073.7</ele>
        <time>2013-05-26T12:35:13Z</time>
      </trkpt>
      <trkpt lat="42.703388" lon="0.677588">
        <ele>2071.8</ele>
        <time>2013-05-26T12:35:24Z</time>
      </trkpt>
      <trkpt lat="42.703453" lon="0.677678">
        <ele>2071.3</ele>
        <time>2013-05-26T12:35:34Z</time>
      </trkpt>
      <trkpt lat="42.703507" lon="0.677757">
        <ele>2073.2</ele>
        <time>2013-05-26T12:35:49Z</time>
      </trkpt>
      <trkpt lat="42.703579" lon="0.677862">
        <ele>2074.2</ele>
        <time>2013-05-26T12:36:01Z</time>
      </trkpt>
      <trkpt lat="42.703618" lon="0.677964">
        <ele>2076.1</ele>
        <time>2013-05-26T12:36:13Z</time>
      </trkpt>
      <trkpt lat="42.703655" lon="0.678086">
        <ele>2077.6</ele>
        <time>2013-05-26T12:36:26Z</time>
      </trkpt>
      <trkpt lat="42.703706" lon="0.678188">
        <ele>2077.6</ele>
        <time>2013-05-26T12:36:37Z</time>
      </trkpt>
      <trkpt lat="42.703768" lon="0.678300">
        <ele>2080.4</ele>
        <time>2013-05-26T12:36:59Z</time>
      </trkpt>
      <trkpt lat="42.703817" lon="0.678397">
        <ele>2083.8</ele>
        <time>2013-05-26T12:37:19Z</time>
      </trkpt>
      <trkpt lat="42.703874" lon="0.678516">
        <ele>2088.1</ele>
        <time>2013-05-26T12:37:42Z</time>
      </trkpt>
      <trkpt lat="42.703953" lon="0.678564">
        <ele>2092.4</ele>
        <time>2013-05-26T12:38:06Z</time>
      </trkpt>
      <trkpt lat="42.704051" lon="0.678603">
        <ele>2095.3</ele>
        <time>2013-05-26T12:38:27Z</time>
      </trkpt>
      <trkpt lat="42.704103" lon="0.678677">
        <ele>2100.1</ele>
        <time>2013-05-26T12:38:52Z</time>
      </trkpt>
      <trkpt lat="42.704053" lon="0.678788">
        <ele>2104.0</ele>
        <time>2013-05-26T12:39:14Z</time>
      </trkpt>
      <trkpt lat="42.704046" lon="0.678840">
        <ele>2107.8</ele>
        <time>2013-05-26T12:39:37Z</time>
      </trkpt>
      <trkpt lat="42.704130" lon="0.678868">
        <ele>2110.2</ele>
        <time>2013-05-26T12:39:53Z</time>
      </trkpt>
      <trkpt lat="42.704111" lon="0.678949">
        <ele>2117.4</ele>
        <time>2013-05-26T12:40:29Z</time>
      </trkpt>
      <trkpt lat="42.704194" lon="0.678969">
        <ele>2120.3</ele>
        <time>2013-05-26T12:40:53Z</time>
      </trkpt>
      <trkpt lat="42.704248" lon="0.679059">
        <ele>2126.6</ele>
        <time>2013-05-26T12:41:32Z</time>
      </trkpt>
      <trkpt lat="42.704294" lon="0.679140">
        <ele>2132.3</ele>
        <time>2013-05-26T12:42:09Z</time>
      </trkpt>
      <trkpt lat="42.704384" lon="0.679181">
        <ele>2137.6</ele>
        <time>2013-05-26T12:42:39Z</time>
      </trkpt>
      <trkpt lat="42.704458" lon="0.679151">
        <ele>2141.5</ele>
        <time>2013-05-26T12:43:12Z</time>
      </trkpt>
      <trkpt lat="42.704547" lon="0.679154">
        <ele>2142.9</ele>
        <time>2013-05-26T12:43:29Z</time>
      </trkpt>
      <trkpt lat="42.704606" lon="0.679261">
        <ele>2146.8</ele>
        <time>2013-05-26T12:43:55Z</time>
      </trkpt>
      <trkpt lat="42.704586" lon="0.679357">
        <ele>2149.6</ele>
        <time>2013-05-26T12:45:04Z</time>
      </trkpt>
      <trkpt lat="42.704613" lon="0.679476">
        <ele>2152.5</ele>
        <time>2013-05-26T12:45:23Z</time>
      </trkpt>
      <trkpt lat="42.704641" lon="0.679595">
        <ele>2154.9</ele>
        <time>2013-05-26T12:45:41Z</time>
      </trkpt>
      <trkpt lat="42.704676" lon="0.679718">
        <ele>2157.8</ele>
        <time>2013-05-26T12:45:59Z</time>
      </trkpt>
      <trkpt lat="42.704717" lon="0.679825">
        <ele>2160.2</ele>
        <time>2013-05-26T12:46:15Z</time>
      </trkpt>
      <trkpt lat="42.704776" lon="0.679931">
        <ele>2162.6</ele>
        <time>2013-05-26T12:46:32Z</time>
      </trkpt>
      <trkpt lat="42.704824" lon="0.680040">
        <ele>2164.6</ele>
        <time>2013-05-26T12:46:49Z</time>
      </trkpt>
      <trkpt lat="42.704877" lon="0.680154">
        <ele>2166.5</ele>
        <time>2013-05-26T12:47:05Z</time>
      </trkpt>
      <trkpt lat="42.704903" lon="0.680281">
        <ele>2167.4</ele>
        <time>2013-05-26T12:47:21Z</time>
      </trkpt>
      <trkpt lat="42.704936" lon="0.680398">
        <ele>2165.5</ele>
        <time>2013-05-26T12:47:32Z</time>
      </trkpt>
      <trkpt lat="42.704992" lon="0.680487">
        <ele>2166.9</ele>
        <time>2013-05-26T12:47:43Z</time>
      </trkpt>
      <trkpt lat="42.705008" lon="0.680606">
        <ele>2167.9</ele>
        <time>2013-05-26T12:47:57Z</time>
      </trkpt>
      <trkpt lat="42.704994" lon="0.680659">
        <ele>2167.4</ele>
        <time>2013-05-26T12:49:23Z</time>
      </trkpt>
      <trkpt lat="42.704990" lon="0.680721">
        <ele>2167.9</ele>
        <time>2013-05-26T12:50:14Z</time>
      </trkpt>
      <trkpt lat="42.705047" lon="0.680834">
        <ele>2163.1</ele>
        <time>2013-05-26T12:50:24Z</time>
      </trkpt>
      <trkpt lat="42.705125" lon="0.680919">
        <ele>2155.4</ele>
        <time>2013-05-26T12:50:36Z</time>
      </trkpt>
      <trkpt lat="42.705199" lon="0.680970">
        <ele>2151.1</ele>
        <time>2013-05-26T12:50:47Z</time>
      </trkpt>
      <trkpt lat="42.705282" lon="0.681032">
        <ele>2146.8</ele>
        <time>2013-05-26T12:50:58Z</time>
      </trkpt>
      <trkpt lat="42.705370" lon="0.681089">
        <ele>2142.9</ele>
        <time>2013-05-26T12:51:41Z</time>
      </trkpt>
      <trkpt lat="42.705441" lon="0.681175">
        <ele>2138.6</ele>
        <time>2013-05-26T12:51:51Z</time>
      </trkpt>
      <trkpt lat="42.705505" lon="0.681216">
        <ele>2134.7</ele>
        <time>2013-05-26T12:52:08Z</time>
      </trkpt>
      <trkpt lat="42.705586" lon="0.681285">
        <ele>2129.5</ele>
        <time>2013-05-26T12:52:20Z</time>
      </trkpt>
      <trkpt lat="42.705667" lon="0.681333">
        <ele>2123.7</ele>
        <time>2013-05-26T12:52:31Z</time>
      </trkpt>
      <trkpt lat="42.705750" lon="0.681386">
        <ele>2119.8</ele>
        <time>2013-05-26T12:52:41Z</time>
      </trkpt>
      <trkpt lat="42.705833" lon="0.681476">
        <ele>2116.0</ele>
        <time>2013-05-26T12:52:51Z</time>
      </trkpt>
      <trkpt lat="42.705926" lon="0.681530">
        <ele>2114.1</ele>
        <time>2013-05-26T12:52:59Z</time>
      </trkpt>
      <trkpt lat="42.706022" lon="0.681583">
        <ele>2113.1</ele>
        <time>2013-05-26T12:53:07Z</time>
      </trkpt>
      <trkpt lat="42.706105" lon="0.681627">
        <ele>2112.6</ele>
        <time>2013-05-26T12:53:16Z</time>
      </trkpt>
      <trkpt lat="42.706203" lon="0.681653">
        <ele>2113.6</ele>
        <time>2013-05-26T12:53:26Z</time>
      </trkpt>
      <trkpt lat="42.706292" lon="0.681676">
        <ele>2114.6</ele>
        <time>2013-05-26T12:53:38Z</time>
      </trkpt>
      <trkpt lat="42.706395" lon="0.681706">
        <ele>2117.0</ele>
        <time>2013-05-26T12:53:51Z</time>
      </trkpt>
      <trkpt lat="42.706483" lon="0.681732">
        <ele>2118.4</ele>
        <time>2013-05-26T12:54:05Z</time>
      </trkpt>
      <trkpt lat="42.706559" lon="0.681760">
        <ele>2119.8</ele>
        <time>2013-05-26T12:54:19Z</time>
      </trkpt>
      <trkpt lat="42.706649" lon="0.681787">
        <ele>2120.3</ele>
        <time>2013-05-26T12:54:32Z</time>
      </trkpt>
      <trkpt lat="42.706735" lon="0.681806">
        <ele>2121.8</ele>
        <time>2013-05-26T12:54:45Z</time>
      </trkpt>
      <trkpt lat="42.706816" lon="0.681824">
        <ele>2123.7</ele>
        <time>2013-05-26T12:55:00Z</time>
      </trkpt>
      <trkpt lat="42.706905" lon="0.681842">
        <ele>2126.1</ele>
        <time>2013-05-26T12:55:18Z</time>
      </trkpt>
      <trkpt lat="42.706996" lon="0.681849">
        <ele>2127.5</ele>
        <time>2013-05-26T12:55:34Z</time>
      </trkpt>
      <trkpt lat="42.707093" lon="0.681852">
        <ele>2129.9</ele>
        <time>2013-05-26T12:55:51Z</time>
      </trkpt>
      <trkpt lat="42.707184" lon="0.681837">
        <ele>2132.8</ele>
        <time>2013-05-26T12:56:06Z</time>
      </trkpt>
      <trkpt lat="42.707275" lon="0.681841">
        <ele>2136.7</ele>
        <time>2013-05-26T12:56:26Z</time>
      </trkpt>
      <trkpt lat="42.707355" lon="0.681859">
        <ele>2138.1</ele>
        <time>2013-05-26T12:56:44Z</time>
      </trkpt>
      <trkpt lat="42.707444" lon="0.681906">
        <ele>2140.5</ele>
        <time>2013-05-26T12:57:01Z</time>
      </trkpt>
      <trkpt lat="42.707530" lon="0.681950">
        <ele>2141.5</ele>
        <time>2013-05-26T12:57:18Z</time>
      </trkpt>
      <trkpt lat="42.707620" lon="0.681988">
        <ele>2142.4</ele>
        <time>2013-05-26T12:57:31Z</time>
      </trkpt>
      <trkpt lat="42.707706" lon="0.682055">
        <ele>2143.4</ele>
        <time>2013-05-26T12:57:47Z</time>
      </trkpt>
      <trkpt lat="42.707766" lon="0.682142">
        <ele>2143.4</ele>
        <time>2013-05-26T12:57:58Z</time>
      </trkpt>
      <trkpt lat="42.707853" lon="0.682202">
        <ele>2143.9</ele>
        <time>2013-05-26T12:58:11Z</time>
      </trkpt>
      <trkpt lat="42.707930" lon="0.682256">
        <ele>2146.3</ele>
        <time>2013-05-26T12:58:29Z</time>
      </trkpt>
      <trkpt lat="42.708039" lon="0.682264">
        <ele>2148.7</ele>
        <time>2013-05-26T12:58:51Z</time>
      </trkpt>
      <trkpt lat="42.708125" lon="0.682307">
        <ele>2152.1</ele>
        <time>2013-05-26T12:59:09Z</time>
      </trkpt>
      <trkpt lat="42.708180" lon="0.682400">
        <ele>2152.5</ele>
        <time>2013-05-26T12:59:22Z</time>
      </trkpt>
      <trkpt lat="42.708254" lon="0.682475">
        <ele>2154.4</ele>
        <time>2013-05-26T13:00:20Z</time>
      </trkpt>
      <trkpt lat="42.708352" lon="0.682504">
        <ele>2155.4</ele>
        <time>2013-05-26T13:00:37Z</time>
      </trkpt>
      <trkpt lat="42.708441" lon="0.682502">
        <ele>2154.4</ele>
        <time>2013-05-26T13:00:47Z</time>
      </trkpt>
      <trkpt lat="42.708532" lon="0.682528">
        <ele>2154.0</ele>
        <time>2013-05-26T13:00:57Z</time>
      </trkpt>
      <trkpt lat="42.708615" lon="0.682597">
        <ele>2155.4</ele>
        <time>2013-05-26T13:01:12Z</time>
      </trkpt>
      <trkpt lat="42.708714" lon="0.682648">
        <ele>2157.3</ele>
        <time>2013-05-26T13:01:29Z</time>
      </trkpt>
      <trkpt lat="42.708818" lon="0.682646">
        <ele>2159.7</ele>
        <time>2013-05-26T13:01:44Z</time>
      </trkpt>
      <trkpt lat="42.708915" lon="0.682625">
        <ele>2161.7</ele>
        <time>2013-05-26T13:02:01Z</time>
      </trkpt>
      <trkpt lat="42.708990" lon="0.682538">
        <ele>2163.6</ele>
        <time>2013-05-26T13:02:15Z</time>
      </trkpt>
      <trkpt lat="42.709058" lon="0.682460">
        <ele>2164.6</ele>
        <time>2013-05-26T13:02:29Z</time>
      </trkpt>
      <trkpt lat="42.709090" lon="0.682390">
        <ele>2164.6</ele>
        <time>2013-05-26T13:06:31Z</time>
      </trkpt>
      <trkpt lat="42.709144" lon="0.682294">
        <ele>2163.6</ele>
        <time>2013-05-26T13:06:42Z</time>
      </trkpt>
      <trkpt lat="42.709230" lon="0.682233">
        <ele>2162.6</ele>
        <time>2013-05-26T13:06:52Z</time>
      </trkpt>
      <trkpt lat="42.709327" lon="0.682178">
        <ele>2162.1</ele>
        <time>2013-05-26T13:07:04Z</time>
      </trkpt>
      <trkpt lat="42.709379" lon="0.682082">
        <ele>2158.3</ele>
        <time>2013-05-26T13:07:15Z</time>
      </trkpt>
      <trkpt lat="42.709434" lon="0.681980">
        <ele>2155.4</ele>
        <time>2013-05-26T13:07:26Z</time>
      </trkpt>
      <trkpt lat="42.709513" lon="0.681894">
        <ele>2153.0</ele>
        <time>2013-05-26T13:07:36Z</time>
      </trkpt>
      <trkpt lat="42.709607" lon="0.681832">
        <ele>2152.1</ele>
        <time>2013-05-26T13:07:46Z</time>
      </trkpt>
      <trkpt lat="42.709682" lon="0.681783">
        <ele>2150.6</ele>
        <time>2013-05-26T13:07:55Z</time>
      </trkpt>
      <trkpt lat="42.709767" lon="0.681722">
        <ele>2148.7</ele>
        <time>2013-05-26T13:08:05Z</time>
      </trkpt>
      <trkpt lat="42.709851" lon="0.681679">
        <ele>2145.8</ele>
        <time>2013-05-26T13:08:16Z</time>
      </trkpt>
      <trkpt lat="42.709935" lon="0.681633">
        <ele>2143.9</ele>
        <time>2013-05-26T13:08:26Z</time>
      </trkpt>
      <trkpt lat="42.710032" lon="0.681581">
        <ele>2141.9</ele>
        <time>2013-05-26T13:08:36Z</time>
      </trkpt>
      <trkpt lat="42.710120" lon="0.681545">
        <ele>2141.0</ele>
        <time>2013-05-26T13:08:46Z</time>
      </trkpt>
      <trkpt lat="42.710209" lon="0.681532">
        <ele>2140.5</ele>
        <time>2013-05-26T13:08:58Z</time>
      </trkpt>
      <trkpt lat="42.710222" lon="0.681526">
        <ele>2141.0</ele>
        <time>2013-05-26T13:18:49Z</time>
      </trkpt>
      <trkpt lat="42.710235" lon="0.681615">
        <ele>2138.1</ele>
        <time>2013-05-26T13:19:05Z</time>
      </trkpt>
      <trkpt lat="42.710334" lon="0.681603">
        <ele>2135.7</ele>
        <time>2013-05-26T13:19:15Z</time>
      </trkpt>
      <trkpt lat="42.710392" lon="0.681671">
        <ele>2132.8</ele>
        <time>2013-05-26T13:19:32Z</time>
      </trkpt>
      <trkpt lat="42.710472" lon="0.681727">
        <ele>2129.9</ele>
        <time>2013-05-26T13:19:46Z</time>
      </trkpt>
      <trkpt lat="42.710565" lon="0.681704">
        <ele>2124.6</ele>
        <time>2013-05-26T13:20:26Z</time>
      </trkpt>
      <trkpt lat="42.710625" lon="0.681634">
        <ele>2118.9</ele>
        <time>2013-05-26T13:20:46Z</time>
      </trkpt>
      <trkpt lat="42.710707" lon="0.681608">
        <ele>2115.0</ele>
        <time>2013-05-26T13:21:06Z</time>
      </trkpt>
      <trkpt lat="42.710794" lon="0.681603">
        <ele>2108.3</ele>
        <time>2013-05-26T13:21:24Z</time>
      </trkpt>
      <trkpt lat="42.710868" lon="0.681607">
        <ele>2101.6</ele>
        <time>2013-05-26T13:21:43Z</time>
      </trkpt>
      <trkpt lat="42.710967" lon="0.681651">
        <ele>2097.2</ele>
        <time>2013-05-26T13:21:57Z</time>
      </trkpt>
      <trkpt lat="42.711026" lon="0.681741">
        <ele>2094.4</ele>
        <time>2013-05-26T13:22:08Z</time>
      </trkpt>
      <trkpt lat="42.711102" lon="0.681778">
        <ele>2087.6</ele>
        <time>2013-05-26T13:22:20Z</time>
      </trkpt>
      <trkpt lat="42.711132" lon="0.681747">
        <ele>2081.9</ele>
        <time>2013-05-26T13:22:36Z</time>
      </trkpt>
      <trkpt lat="42.711222" lon="0.681734">
        <ele>2078.0</ele>
        <time>2013-05-26T13:22:47Z</time>
      </trkpt>
      <trkpt lat="42.711294" lon="0.681720">
        <ele>2072.7</ele>
        <time>2013-05-26T13:23:03Z</time>
      </trkpt>
      <trkpt lat="42.711369" lon="0.681693">
        <ele>2067.9</ele>
        <time>2013-05-26T13:23:17Z</time>
      </trkpt>
      <trkpt lat="42.711419" lon="0.681655">
        <ele>2064.1</ele>
        <time>2013-05-26T13:23:33Z</time>
      </trkpt>
      <trkpt lat="42.711544" lon="0.681755">
        <ele>2059.3</ele>
        <time>2013-05-26T13:24:08Z</time>
      </trkpt>
      <trkpt lat="42.711596" lon="0.681761">
        <ele>2054.0</ele>
        <time>2013-05-26T13:24:28Z</time>
      </trkpt>
      <trkpt lat="42.711674" lon="0.681789">
        <ele>2048.2</ele>
        <time>2013-05-26T13:24:49Z</time>
      </trkpt>
      <trkpt lat="42.711753" lon="0.681751">
        <ele>2042.9</ele>
        <time>2013-05-26T13:25:07Z</time>
      </trkpt>
      <trkpt lat="42.711836" lon="0.681698">
        <ele>2039.6</ele>
        <time>2013-05-26T13:25:20Z</time>
      </trkpt>
      <trkpt lat="42.711905" lon="0.681798">
        <ele>2034.8</ele>
        <time>2013-05-26T13:25:38Z</time>
      </trkpt>
      <trkpt lat="42.711994" lon="0.681824">
        <ele>2031.4</ele>
        <time>2013-05-26T13:27:25Z</time>
      </trkpt>
      <trkpt lat="42.712085" lon="0.681874">
        <ele>2028.0</ele>
        <time>2013-05-26T13:27:39Z</time>
      </trkpt>
      <trkpt lat="42.712170" lon="0.681898">
        <ele>2026.1</ele>
        <time>2013-05-26T13:27:51Z</time>
      </trkpt>
      <trkpt lat="42.712247" lon="0.681945">
        <ele>2023.7</ele>
        <time>2013-05-26T13:28:02Z</time>
      </trkpt>
      <trkpt lat="42.712346" lon="0.681976">
        <ele>2022.8</ele>
        <time>2013-05-26T13:28:13Z</time>
      </trkpt>
      <trkpt lat="42.712438" lon="0.681949">
        <ele>2020.8</ele>
        <time>2013-05-26T13:28:24Z</time>
      </trkpt>
      <trkpt lat="42.712487" lon="0.681852">
        <ele>2018.4</ele>
        <time>2013-05-26T13:28:34Z</time>
      </trkpt>
      <trkpt lat="42.712542" lon="0.681747">
        <ele>2016.0</ele>
        <time>2013-05-26T13:28:43Z</time>
      </trkpt>
      <trkpt lat="42.712578" lon="0.681697">
        <ele>2013.6</ele>
        <time>2013-05-26T13:29:10Z</time>
      </trkpt>
      <trkpt lat="42.712612" lon="0.681555">
        <ele>2010.2</ele>
        <time>2013-05-26T13:29:25Z</time>
      </trkpt>
      <trkpt lat="42.712648" lon="0.681447">
        <ele>2006.4</ele>
        <time>2013-05-26T13:29:35Z</time>
      </trkpt>
      <trkpt lat="42.712692" lon="0.681328">
        <ele>2002.6</ele>
        <time>2013-05-26T13:29:45Z</time>
      </trkpt>
      <trkpt lat="42.712748" lon="0.681245">
        <ele>1998.7</ele>
        <time>2013-05-26T13:30:24Z</time>
      </trkpt>
      <trkpt lat="42.712809" lon="0.681141">
        <ele>1995.3</ele>
        <time>2013-05-26T13:30:32Z</time>
      </trkpt>
      <trkpt lat="42.712864" lon="0.681022">
        <ele>1992.9</ele>
        <time>2013-05-26T13:30:41Z</time>
      </trkpt>
      <trkpt lat="42.712934" lon="0.680924">
        <ele>1990.6</ele>
        <time>2013-05-26T13:30:50Z</time>
      </trkpt>
      <trkpt lat="42.712994" lon="0.680838">
        <ele>1988.6</ele>
        <time>2013-05-26T13:30:59Z</time>
      </trkpt>
      <trkpt lat="42.713057" lon="0.680745">
        <ele>1986.7</ele>
        <time>2013-05-26T13:31:08Z</time>
      </trkpt>
      <trkpt lat="42.713125" lon="0.680653">
        <ele>1984.8</ele>
        <time>2013-05-26T13:31:17Z</time>
      </trkpt>
      <trkpt lat="42.713182" lon="0.680548">
        <ele>1983.3</ele>
        <time>2013-05-26T13:31:25Z</time>
      </trkpt>
      <trkpt lat="42.713244" lon="0.680469">
        <ele>1980.4</ele>
        <time>2013-05-26T13:31:33Z</time>
      </trkpt>
      <trkpt lat="42.713299" lon="0.680377">
        <ele>1977.6</ele>
        <time>2013-05-26T13:31:42Z</time>
      </trkpt>
      <trkpt lat="42.713361" lon="0.680293">
        <ele>1974.7</ele>
        <time>2013-05-26T13:31:50Z</time>
      </trkpt>
      <trkpt lat="42.713425" lon="0.680210">
        <ele>1970.8</ele>
        <time>2013-05-26T13:31:59Z</time>
      </trkpt>
      <trkpt lat="42.713492" lon="0.680111">
        <ele>1966.0</ele>
        <time>2013-05-26T13:32:08Z</time>
      </trkpt>
      <trkpt lat="42.713534" lon="0.680011">
        <ele>1962.2</ele>
        <time>2013-05-26T13:32:17Z</time>
      </trkpt>
      <trkpt lat="42.713595" lon="0.679907">
        <ele>1958.3</ele>
        <time>2013-05-26T13:32:26Z</time>
      </trkpt>
      <trkpt lat="42.713673" lon="0.679842">
        <ele>1954.0</ele>
        <time>2013-05-26T13:32:35Z</time>
      </trkpt>
      <trkpt lat="42.713762" lon="0.679793">
        <ele>1950.7</ele>
        <time>2013-05-26T13:32:44Z</time>
      </trkpt>
      <trkpt lat="42.713840" lon="0.679751">
        <ele>1947.3</ele>
        <time>2013-05-26T13:32:52Z</time>
      </trkpt>
      <trkpt lat="42.713920" lon="0.679703">
        <ele>1943.9</ele>
        <time>2013-05-26T13:33:00Z</time>
      </trkpt>
      <trkpt lat="42.714007" lon="0.679638">
        <ele>1941.0</ele>
        <time>2013-05-26T13:33:08Z</time>
      </trkpt>
      <trkpt lat="42.714094" lon="0.679560">
        <ele>1937.7</ele>
        <time>2013-05-26T13:33:17Z</time>
      </trkpt>
      <trkpt lat="42.714180" lon="0.679485">
        <ele>1934.8</ele>
        <time>2013-05-26T13:33:26Z</time>
      </trkpt>
      <trkpt lat="42.714270" lon="0.679403">
        <ele>1932.9</ele>
        <time>2013-05-26T13:33:34Z</time>
      </trkpt>
      <trkpt lat="42.714353" lon="0.679340">
        <ele>1930.9</ele>
        <time>2013-05-26T13:33:42Z</time>
      </trkpt>
      <trkpt lat="42.714439" lon="0.679277">
        <ele>1927.6</ele>
        <time>2013-05-26T13:33:51Z</time>
      </trkpt>
      <trkpt lat="42.714533" lon="0.679205">
        <ele>1923.7</ele>
        <time>2013-05-26T13:34:00Z</time>
      </trkpt>
      <trkpt lat="42.714581" lon="0.679131">
        <ele>1920.8</ele>
        <time>2013-05-26T13:34:36Z</time>
      </trkpt>
      <trkpt lat="42.714658" lon="0.679059">
        <ele>1918.0</ele>
        <time>2013-05-26T13:34:45Z</time>
      </trkpt>
      <trkpt lat="42.714734" lon="0.679010">
        <ele>1915.6</ele>
        <time>2013-05-26T13:34:54Z</time>
      </trkpt>
      <trkpt lat="42.714797" lon="0.678951">
        <ele>1914.6</ele>
        <time>2013-05-26T13:35:07Z</time>
      </trkpt>
      <trkpt lat="42.714872" lon="0.678857">
        <ele>1914.1</ele>
        <time>2013-05-26T13:35:17Z</time>
      </trkpt>
      <trkpt lat="42.714932" lon="0.678752">
        <ele>1913.6</ele>
        <time>2013-05-26T13:35:30Z</time>
      </trkpt>
      <trkpt lat="42.714977" lon="0.678667">
        <ele>1912.2</ele>
        <time>2013-05-26T13:35:47Z</time>
      </trkpt>
      <trkpt lat="42.715025" lon="0.678569">
        <ele>1910.8</ele>
        <time>2013-05-26T13:35:56Z</time>
      </trkpt>
      <trkpt lat="42.715097" lon="0.678481">
        <ele>1908.3</ele>
        <time>2013-05-26T13:36:05Z</time>
      </trkpt>
      <trkpt lat="42.715179" lon="0.678388">
        <ele>1905.5</ele>
        <time>2013-05-26T13:36:14Z</time>
      </trkpt>
      <trkpt lat="42.715227" lon="0.678293">
        <ele>1902.6</ele>
        <time>2013-05-26T13:36:23Z</time>
      </trkpt>
      <trkpt lat="42.715264" lon="0.678187">
        <ele>1899.7</ele>
        <time>2013-05-26T13:36:31Z</time>
      </trkpt>
      <trkpt lat="42.715299" lon="0.678076">
        <ele>1896.3</ele>
        <time>2013-05-26T13:36:39Z</time>
      </trkpt>
      <trkpt lat="42.715329" lon="0.677948">
        <ele>1894.4</ele>
        <time>2013-05-26T13:36:48Z</time>
      </trkpt>
      <trkpt lat="42.715377" lon="0.677833">
        <ele>1893.0</ele>
        <time>2013-05-26T13:36:57Z</time>
      </trkpt>
      <trkpt lat="42.715423" lon="0.677717">
        <ele>1891.5</ele>
        <time>2013-05-26T13:37:06Z</time>
      </trkpt>
      <trkpt lat="42.715456" lon="0.677603">
        <ele>1889.6</ele>
        <time>2013-05-26T13:37:14Z</time>
      </trkpt>
      <trkpt lat="42.715487" lon="0.677489">
        <ele>1888.7</ele>
        <time>2013-05-26T13:37:22Z</time>
      </trkpt>
      <trkpt lat="42.715515" lon="0.677373">
        <ele>1887.2</ele>
        <time>2013-05-26T13:37:30Z</time>
      </trkpt>
      <trkpt lat="42.715547" lon="0.677247">
        <ele>1885.8</ele>
        <time>2013-05-26T13:37:38Z</time>
      </trkpt>
      <trkpt lat="42.715586" lon="0.677141">
        <ele>1883.8</ele>
        <time>2013-05-26T13:37:46Z</time>
      </trkpt>
      <trkpt lat="42.715623" lon="0.677023">
        <ele>1882.9</ele>
        <time>2013-05-26T13:37:54Z</time>
      </trkpt>
      <trkpt lat="42.715653" lon="0.676907">
        <ele>1881.9</ele>
        <time>2013-05-26T13:38:03Z</time>
      </trkpt>
      <trkpt lat="42.715710" lon="0.676805">
        <ele>1881.0</ele>
        <time>2013-05-26T13:38:12Z</time>
      </trkpt>
      <trkpt lat="42.715760" lon="0.676681">
        <ele>1880.0</ele>
        <time>2013-05-26T13:38:22Z</time>
      </trkpt>
      <trkpt lat="42.715808" lon="0.676575">
        <ele>1878.6</ele>
        <time>2013-05-26T13:38:32Z</time>
      </trkpt>
      <trkpt lat="42.715850" lon="0.676465">
        <ele>1877.1</ele>
        <time>2013-05-26T13:38:42Z</time>
      </trkpt>
      <trkpt lat="42.715914" lon="0.676368">
        <ele>1875.7</ele>
        <time>2013-05-26T13:38:54Z</time>
      </trkpt>
      <trkpt lat="42.715966" lon="0.676251">
        <ele>1874.7</ele>
        <time>2013-05-26T13:39:02Z</time>
      </trkpt>
      <trkpt lat="42.716027" lon="0.676165">
        <ele>1873.3</ele>
        <time>2013-05-26T13:39:09Z</time>
      </trkpt>
      <trkpt lat="42.716070" lon="0.676071">
        <ele>1871.8</ele>
        <time>2013-05-26T13:39:17Z</time>
      </trkpt>
      <trkpt lat="42.716140" lon="0.675980">
        <ele>1870.4</ele>
        <time>2013-05-26T13:39:25Z</time>
      </trkpt>
      <trkpt lat="42.716202" lon="0.675890">
        <ele>1868.9</ele>
        <time>2013-05-26T13:39:35Z</time>
      </trkpt>
      <trkpt lat="42.716273" lon="0.675789">
        <ele>1867.0</ele>
        <time>2013-05-26T13:39:45Z</time>
      </trkpt>
      <trkpt lat="42.716346" lon="0.675691">
        <ele>1865.6</ele>
        <time>2013-05-26T13:39:54Z</time>
      </trkpt>
      <trkpt lat="42.716392" lon="0.675584">
        <ele>1863.7</ele>
        <time>2013-05-26T13:40:02Z</time>
      </trkpt>
      <trkpt lat="42.716431" lon="0.675471">
        <ele>1862.2</ele>
        <time>2013-05-26T13:40:10Z</time>
      </trkpt>
      <trkpt lat="42.716470" lon="0.675358">
        <ele>1859.8</ele>
        <time>2013-05-26T13:40:18Z</time>
      </trkpt>
      <trkpt lat="42.716503" lon="0.675240">
        <ele>1857.9</ele>
        <time>2013-05-26T13:40:26Z</time>
      </trkpt>
      <trkpt lat="42.716540" lon="0.675111">
        <ele>1855.5</ele>
        <time>2013-05-26T13:40:34Z</time>
      </trkpt>
      <trkpt lat="42.716601" lon="0.675004">
        <ele>1852.6</ele>
        <time>2013-05-26T13:40:42Z</time>
      </trkpt>
      <trkpt lat="42.716696" lon="0.674959">
        <ele>1850.2</ele>
        <time>2013-05-26T13:40:50Z</time>
      </trkpt>
      <trkpt lat="42.716793" lon="0.674901">
        <ele>1848.3</ele>
        <time>2013-05-26T13:40:58Z</time>
      </trkpt>
      <trkpt lat="42.716874" lon="0.674808">
        <ele>1846.3</ele>
        <time>2013-05-26T13:41:06Z</time>
      </trkpt>
      <trkpt lat="42.716952" lon="0.674730">
        <ele>1844.4</ele>
        <time>2013-05-26T13:41:14Z</time>
      </trkpt>
      <trkpt lat="42.717018" lon="0.674645">
        <ele>1842.5</ele>
        <time>2013-05-26T13:41:22Z</time>
      </trkpt>
      <trkpt lat="42.717085" lon="0.674551">
        <ele>1841.1</ele>
        <time>2013-05-26T13:41:31Z</time>
      </trkpt>
      <trkpt lat="42.717146" lon="0.674446">
        <ele>1840.1</ele>
        <time>2013-05-26T13:41:40Z</time>
      </trkpt>
      <trkpt lat="42.717207" lon="0.674358">
        <ele>1839.6</ele>
        <time>2013-05-26T13:41:49Z</time>
      </trkpt>
      <trkpt lat="42.717263" lon="0.674244">
        <ele>1838.7</ele>
        <time>2013-05-26T13:41:58Z</time>
      </trkpt>
      <trkpt lat="42.717329" lon="0.674151">
        <ele>1835.8</ele>
        <time>2013-05-26T13:42:07Z</time>
      </trkpt>
      <trkpt lat="42.717384" lon="0.674038">
        <ele>1832.4</ele>
        <time>2013-05-26T13:42:15Z</time>
      </trkpt>
      <trkpt lat="42.717425" lon="0.673924">
        <ele>1831.4</ele>
        <time>2013-05-26T13:42:24Z</time>
      </trkpt>
      <trkpt lat="42.717474" lon="0.673806">
        <ele>1830.0</ele>
        <time>2013-05-26T13:42:32Z</time>
      </trkpt>
      <trkpt lat="42.717534" lon="0.673700">
        <ele>1828.6</ele>
        <time>2013-05-26T13:42:41Z</time>
      </trkpt>
      <trkpt lat="42.717572" lon="0.673582">
        <ele>1827.1</ele>
        <time>2013-05-26T13:42:50Z</time>
      </trkpt>
      <trkpt lat="42.717615" lon="0.673450">
        <ele>1826.2</ele>
        <time>2013-05-26T13:42:59Z</time>
      </trkpt>
      <trkpt lat="42.717686" lon="0.673374">
        <ele>1822.8</ele>
        <time>2013-05-26T13:43:07Z</time>
      </trkpt>
      <trkpt lat="42.717753" lon="0.673270">
        <ele>1820.4</ele>
        <time>2013-05-26T13:43:17Z</time>
      </trkpt>
      <trkpt lat="42.717784" lon="0.673142">
        <ele>1817.0</ele>
        <time>2013-05-26T13:43:27Z</time>
      </trkpt>
      <trkpt lat="42.717807" lon="0.673020">
        <ele>1815.1</ele>
        <time>2013-05-26T13:43:36Z</time>
      </trkpt>
      <trkpt lat="42.717856" lon="0.672897">
        <ele>1813.7</ele>
        <time>2013-05-26T13:43:46Z</time>
      </trkpt>
      <trkpt lat="42.717907" lon="0.672777">
        <ele>1812.7</ele>
        <time>2013-05-26T13:43:56Z</time>
      </trkpt>
      <trkpt lat="42.717965" lon="0.672670">
        <ele>1811.3</ele>
        <time>2013-05-26T13:44:06Z</time>
      </trkpt>
      <trkpt lat="42.718026" lon="0.672561">
        <ele>1810.8</ele>
        <time>2013-05-26T13:44:17Z</time>
      </trkpt>
      <trkpt lat="42.718082" lon="0.672450">
        <ele>1809.3</ele>
        <time>2013-05-26T13:44:27Z</time>
      </trkpt>
      <trkpt lat="42.718108" lon="0.672338">
        <ele>1807.9</ele>
        <time>2013-05-26T13:44:37Z</time>
      </trkpt>
      <trkpt lat="42.718134" lon="0.672212">
        <ele>1807.4</ele>
        <time>2013-05-26T13:44:47Z</time>
      </trkpt>
      <trkpt lat="42.718159" lon="0.672083">
        <ele>1806.0</ele>
        <time>2013-05-26T13:44:56Z</time>
      </trkpt>
      <trkpt lat="42.718206" lon="0.671973">
        <ele>1805.5</ele>
        <time>2013-05-26T13:45:06Z</time>
      </trkpt>
      <trkpt lat="42.718250" lon="0.671854">
        <ele>1805.0</ele>
        <time>2013-05-26T13:45:17Z</time>
      </trkpt>
      <trkpt lat="42.718284" lon="0.671727">
        <ele>1804.5</ele>
        <time>2013-05-26T13:45:27Z</time>
      </trkpt>
      <trkpt lat="42.718293" lon="0.671604">
        <ele>1802.6</ele>
        <time>2013-05-26T13:45:36Z</time>
      </trkpt>
      <trkpt lat="42.718314" lon="0.671478">
        <ele>1801.2</ele>
        <time>2013-05-26T13:45:45Z</time>
      </trkpt>
      <trkpt lat="42.718360" lon="0.671326">
        <ele>1800.2</ele>
        <time>2013-05-26T13:45:55Z</time>
      </trkpt>
      <trkpt lat="42.718399" lon="0.671194">
        <ele>1798.8</ele>
        <time>2013-05-26T13:46:04Z</time>
      </trkpt>
      <trkpt lat="42.718438" lon="0.671048">
        <ele>1798.3</ele>
        <time>2013-05-26T13:46:13Z</time>
      </trkpt>
      <trkpt lat="42.718447" lon="0.670927">
        <ele>1796.8</ele>
        <time>2013-05-26T13:46:22Z</time>
      </trkpt>
      <trkpt lat="42.718502" lon="0.670868">
        <ele>1796.8</ele>
        <time>2013-05-26T13:53:54Z</time>
      </trkpt>
      <trkpt lat="42.718539" lon="0.670807">
        <ele>1794.0</ele>
        <time>2013-05-26T13:54:47Z</time>
      </trkpt>
      <trkpt lat="42.718564" lon="0.670683">
        <ele>1789.6</ele>
        <time>2013-05-26T13:54:58Z</time>
      </trkpt>
      <trkpt lat="42.718577" lon="0.670548">
        <ele>1787.7</ele>
        <time>2013-05-26T13:55:08Z</time>
      </trkpt>
      <trkpt lat="42.718596" lon="0.670408">
        <ele>1785.8</ele>
        <time>2013-05-26T13:55:17Z</time>
      </trkpt>
      <trkpt lat="42.718619" lon="0.670277">
        <ele>1783.9</ele>
        <time>2013-05-26T13:55:26Z</time>
      </trkpt>
      <trkpt lat="42.718631" lon="0.670148">
        <ele>1783.4</ele>
        <time>2013-05-26T13:55:35Z</time>
      </trkpt>
      <trkpt lat="42.718645" lon="0.670005">
        <ele>1781.5</ele>
        <time>2013-05-26T13:55:43Z</time>
      </trkpt>
      <trkpt lat="42.718679" lon="0.669886">
        <ele>1780.5</ele>
        <time>2013-05-26T13:55:51Z</time>
      </trkpt>
      <trkpt lat="42.718703" lon="0.669764">
        <ele>1779.1</ele>
        <time>2013-05-26T13:55:59Z</time>
      </trkpt>
      <trkpt lat="42.718729" lon="0.669633">
        <ele>1778.1</ele>
        <time>2013-05-26T13:56:07Z</time>
      </trkpt>
      <trkpt lat="42.718728" lon="0.669494">
        <ele>1776.7</ele>
        <time>2013-05-26T13:56:15Z</time>
      </trkpt>
      <trkpt lat="42.718733" lon="0.669369">
        <ele>1775.7</ele>
        <time>2013-05-26T13:56:23Z</time>
      </trkpt>
      <trkpt lat="42.718709" lon="0.669259">
        <ele>1774.2</ele>
        <time>2013-05-26T13:56:31Z</time>
      </trkpt>
      <trkpt lat="42.718660" lon="0.669155">
        <ele>1771.4</ele>
        <time>2013-05-26T13:56:40Z</time>
      </trkpt>
      <trkpt lat="42.718672" lon="0.669025">
        <ele>1770.4</ele>
        <time>2013-05-26T13:56:48Z</time>
      </trkpt>
      <trkpt lat="42.718682" lon="0.668884">
        <ele>1769.4</ele>
        <time>2013-05-26T13:56:57Z</time>
      </trkpt>
      <trkpt lat="42.718685" lon="0.668749">
        <ele>1768.0</ele>
        <time>2013-05-26T13:57:05Z</time>
      </trkpt>
      <trkpt lat="42.718665" lon="0.668614">
        <ele>1766.6</ele>
        <time>2013-05-26T13:57:12Z</time>
      </trkpt>
      <trkpt lat="42.718652" lon="0.668484">
        <ele>1765.6</ele>
        <time>2013-05-26T13:57:20Z</time>
      </trkpt>
      <trkpt lat="42.718644" lon="0.668352">
        <ele>1765.1</ele>
        <time>2013-05-26T13:57:27Z</time>
      </trkpt>
      <trkpt lat="42.718646" lon="0.668215">
        <ele>1763.2</ele>
        <time>2013-05-26T13:57:35Z</time>
      </trkpt>
      <trkpt lat="42.718647" lon="0.668093">
        <ele>1762.2</ele>
        <time>2013-05-26T13:57:43Z</time>
      </trkpt>
      <trkpt lat="42.718628" lon="0.667967">
        <ele>1760.3</ele>
        <time>2013-05-26T13:57:51Z</time>
      </trkpt>
      <trkpt lat="42.718615" lon="0.667832">
        <ele>1758.4</ele>
        <time>2013-05-26T13:58:00Z</time>
      </trkpt>
      <trkpt lat="42.718598" lon="0.667713">
        <ele>1756.0</ele>
        <time>2013-05-26T13:58:08Z</time>
      </trkpt>
      <trkpt lat="42.718592" lon="0.667591">
        <ele>1754.5</ele>
        <time>2013-05-26T13:58:17Z</time>
      </trkpt>
      <trkpt lat="42.718553" lon="0.667472">
        <ele>1753.1</ele>
        <time>2013-05-26T13:58:25Z</time>
      </trkpt>
      <trkpt lat="42.718519" lon="0.667341">
        <ele>1751.7</ele>
        <time>2013-05-26T13:58:34Z</time>
      </trkpt>
      <trkpt lat="42.718501" lon="0.667216">
        <ele>1749.3</ele>
        <time>2013-05-26T13:58:42Z</time>
      </trkpt>
      <trkpt lat="42.718489" lon="0.667086">
        <ele>1748.3</ele>
        <time>2013-05-26T13:58:50Z</time>
      </trkpt>
      <trkpt lat="42.718489" lon="0.666952">
        <ele>1746.8</ele>
        <time>2013-05-26T13:58:58Z</time>
      </trkpt>
      <trkpt lat="42.718502" lon="0.666806">
        <ele>1745.9</ele>
        <time>2013-05-26T13:59:07Z</time>
      </trkpt>
      <trkpt lat="42.718477" lon="0.666668">
        <ele>1744.9</ele>
        <time>2013-05-26T13:59:15Z</time>
      </trkpt>
      <trkpt lat="42.718462" lon="0.666541">
        <ele>1743.5</ele>
        <time>2013-05-26T13:59:22Z</time>
      </trkpt>
      <trkpt lat="42.718469" lon="0.666415">
        <ele>1743.0</ele>
        <time>2013-05-26T13:59:30Z</time>
      </trkpt>
      <trkpt lat="42.718457" lon="0.666297">
        <ele>1742.5</ele>
        <time>2013-05-26T13:59:38Z</time>
      </trkpt>
      <trkpt lat="42.718443" lon="0.666173">
        <ele>1741.1</ele>
        <time>2013-05-26T13:59:46Z</time>
      </trkpt>
      <trkpt lat="42.718434" lon="0.666049">
        <ele>1739.6</ele>
        <time>2013-05-26T13:59:55Z</time>
      </trkpt>
      <trkpt lat="42.718404" lon="0.665932">
        <ele>1738.2</ele>
        <time>2013-05-26T14:00:03Z</time>
      </trkpt>
      <trkpt lat="42.718364" lon="0.665837">
        <ele>1736.3</ele>
        <time>2013-05-26T14:00:18Z</time>
      </trkpt>
      <trkpt lat="42.718353" lon="0.665709">
        <ele>1734.4</ele>
        <time>2013-05-26T14:00:25Z</time>
      </trkpt>
      <trkpt lat="42.718375" lon="0.665577">
        <ele>1732.4</ele>
        <time>2013-05-26T14:00:33Z</time>
      </trkpt>
      <trkpt lat="42.718413" lon="0.665438">
        <ele>1731.0</ele>
        <time>2013-05-26T14:00:41Z</time>
      </trkpt>
      <trkpt lat="42.718473" lon="0.665312">
        <ele>1730.5</ele>
        <time>2013-05-26T14:00:49Z</time>
      </trkpt>
      <trkpt lat="42.718547" lon="0.665244">
        <ele>1729.6</ele>
        <time>2013-05-26T14:00:57Z</time>
      </trkpt>
      <trkpt lat="42.718595" lon="0.665156">
        <ele>1727.6</ele>
        <time>2013-05-26T14:01:07Z</time>
      </trkpt>
      <trkpt lat="42.718581" lon="0.665056">
        <ele>1727.6</ele>
        <time>2013-05-26T14:01:17Z</time>
      </trkpt>
      <trkpt lat="42.718541" lon="0.664942">
        <ele>1727.2</ele>
        <time>2013-05-26T14:01:26Z</time>
      </trkpt>
      <trkpt lat="42.718550" lon="0.664822">
        <ele>1724.3</ele>
        <time>2013-05-26T14:01:36Z</time>
      </trkpt>
      <trkpt lat="42.718611" lon="0.664753">
        <ele>1721.4</ele>
        <time>2013-05-26T14:01:47Z</time>
      </trkpt>
      <trkpt lat="42.718539" lon="0.664653">
        <ele>1718.0</ele>
        <time>2013-05-26T14:01:57Z</time>
      </trkpt>
      <trkpt lat="42.718607" lon="0.664554">
        <ele>1715.6</ele>
        <time>2013-05-26T14:02:07Z</time>
      </trkpt>
      <trkpt lat="42.718675" lon="0.664462">
        <ele>1712.7</ele>
        <time>2013-05-26T14:02:17Z</time>
      </trkpt>
      <trkpt lat="42.718703" lon="0.664362">
        <ele>1708.9</ele>
        <time>2013-05-26T14:02:30Z</time>
      </trkpt>
      <trkpt lat="42.718795" lon="0.664332">
        <ele>1705.5</ele>
        <time>2013-05-26T14:02:41Z</time>
      </trkpt>
      <trkpt lat="42.718887" lon="0.664318">
        <ele>1700.7</ele>
        <time>2013-05-26T14:02:51Z</time>
      </trkpt>
      <trkpt lat="42.718989" lon="0.664254">
        <ele>1698.3</ele>
        <time>2013-05-26T14:03:05Z</time>
      </trkpt>
      <trkpt lat="42.719004" lon="0.664129">
        <ele>1696.9</ele>
        <time>2013-05-26T14:03:13Z</time>
      </trkpt>
      <trkpt lat="42.719105" lon="0.664102">
        <ele>1694.5</ele>
        <time>2013-05-26T14:03:22Z</time>
      </trkpt>
      <trkpt lat="42.719216" lon="0.664059">
        <ele>1692.1</ele>
        <time>2013-05-26T14:03:32Z</time>
      </trkpt>
      <trkpt lat="42.719263" lon="0.663936">
        <ele>1689.7</ele>
        <time>2013-05-26T14:03:41Z</time>
      </trkpt>
      <trkpt lat="42.719327" lon="0.663807">
        <ele>1686.8</ele>
        <time>2013-05-26T14:03:50Z</time>
      </trkpt>
      <trkpt lat="42.719365" lon="0.663696">
        <ele>1685.3</ele>
        <time>2013-05-26T14:03:58Z</time>
      </trkpt>
      <trkpt lat="42.719422" lon="0.663566">
        <ele>1683.4</ele>
        <time>2013-05-26T14:04:07Z</time>
      </trkpt>
      <trkpt lat="42.719510" lon="0.663474">
        <ele>1681.0</ele>
        <time>2013-05-26T14:04:16Z</time>
      </trkpt>
      <trkpt lat="42.719562" lon="0.663403">
        <ele>1677.6</ele>
        <time>2013-05-26T14:04:27Z</time>
      </trkpt>
      <trkpt lat="42.719594" lon="0.663306">
        <ele>1674.8</ele>
        <time>2013-05-26T14:04:35Z</time>
      </trkpt>
      <trkpt lat="42.719630" lon="0.663197">
        <ele>1671.9</ele>
        <time>2013-05-26T14:04:44Z</time>
      </trkpt>
      <trkpt lat="42.719703" lon="0.663121">
        <ele>1669.9</ele>
        <time>2013-05-26T14:04:52Z</time>
      </trkpt>
      <trkpt lat="42.719772" lon="0.663027">
        <ele>1667.1</ele>
        <time>2013-05-26T14:05:00Z</time>
      </trkpt>
      <trkpt lat="42.719823" lon="0.662922">
        <ele>1666.1</ele>
        <time>2013-05-26T14:05:08Z</time>
      </trkpt>
      <trkpt lat="42.719814" lon="0.662803">
        <ele>1665.6</ele>
        <time>2013-05-26T14:05:15Z</time>
      </trkpt>
      <trkpt lat="42.719815" lon="0.662679">
        <ele>1664.2</ele>
        <time>2013-05-26T14:05:23Z</time>
      </trkpt>
      <trkpt lat="42.719849" lon="0.662553">
        <ele>1662.7</ele>
        <time>2013-05-26T14:05:31Z</time>
      </trkpt>
      <trkpt lat="42.719898" lon="0.662436">
        <ele>1660.8</ele>
        <time>2013-05-26T14:05:41Z</time>
      </trkpt>
      <trkpt lat="42.719975" lon="0.662355">
        <ele>1657.4</ele>
        <time>2013-05-26T14:05:50Z</time>
      </trkpt>
      <trkpt lat="42.720016" lon="0.662250">
        <ele>1655.1</ele>
        <time>2013-05-26T14:05:59Z</time>
      </trkpt>
      <trkpt lat="42.720045" lon="0.662136">
        <ele>1651.2</ele>
        <time>2013-05-26T14:06:09Z</time>
      </trkpt>
      <trkpt lat="42.720014" lon="0.662040">
        <ele>1645.9</ele>
        <time>2013-05-26T14:06:18Z</time>
      </trkpt>
      <trkpt lat="42.719993" lon="0.661936">
        <ele>1642.1</ele>
        <time>2013-05-26T14:06:28Z</time>
      </trkpt>
      <trkpt lat="42.719951" lon="0.661917">
        <ele>1637.7</ele>
        <time>2013-05-26T14:06:46Z</time>
      </trkpt>
      <trkpt lat="42.719850" lon="0.661964">
        <ele>1633.9</ele>
        <time>2013-05-26T14:06:58Z</time>
      </trkpt>
      <trkpt lat="42.719758" lon="0.661945">
        <ele>1631.0</ele>
        <time>2013-05-26T14:07:08Z</time>
      </trkpt>
      <trkpt lat="42.719666" lon="0.661959">
        <ele>1628.6</ele>
        <time>2013-05-26T14:07:18Z</time>
      </trkpt>
      <trkpt lat="42.719585" lon="0.661914">
        <ele>1627.2</ele>
        <time>2013-05-26T14:07:27Z</time>
      </trkpt>
      <trkpt lat="42.719493" lon="0.661969">
        <ele>1624.3</ele>
        <time>2013-05-26T14:07:39Z</time>
      </trkpt>
      <trkpt lat="42.719404" lon="0.662033">
        <ele>1621.9</ele>
        <time>2013-05-26T14:07:50Z</time>
      </trkpt>
      <trkpt lat="42.719316" lon="0.662084">
        <ele>1619.0</ele>
        <time>2013-05-26T14:08:03Z</time>
      </trkpt>
      <trkpt lat="42.719228" lon="0.662128">
        <ele>1618.0</ele>
        <time>2013-05-26T14:08:14Z</time>
      </trkpt>
      <trkpt lat="42.719139" lon="0.662228">
        <ele>1616.1</ele>
        <time>2013-05-26T14:08:25Z</time>
      </trkpt>
      <trkpt lat="42.719087" lon="0.662198">
        <ele>1613.7</ele>
        <time>2013-05-26T14:08:36Z</time>
      </trkpt>
      <trkpt lat="42.719108" lon="0.662059">
        <ele>1611.3</ele>
        <time>2013-05-26T14:09:20Z</time>
      </trkpt>
      <trkpt lat="42.719163" lon="0.661964">
        <ele>1608.9</ele>
        <time>2013-05-26T14:09:36Z</time>
      </trkpt>
      <trkpt lat="42.719239" lon="0.661869">
        <ele>1606.0</ele>
        <time>2013-05-26T14:09:47Z</time>
      </trkpt>
      <trkpt lat="42.719302" lon="0.661774">
        <ele>1603.6</ele>
        <time>2013-05-26T14:09:58Z</time>
      </trkpt>
      <trkpt lat="42.719352" lon="0.661654">
        <ele>1601.7</ele>
        <time>2013-05-26T14:10:08Z</time>
      </trkpt>
      <trkpt lat="42.719421" lon="0.661551">
        <ele>1597.8</ele>
        <time>2013-05-26T14:10:19Z</time>
      </trkpt>
      <trkpt lat="42.719452" lon="0.661446">
        <ele>1593.5</ele>
        <time>2013-05-26T14:11:17Z</time>
      </trkpt>
      <trkpt lat="42.719418" lon="0.661398">
        <ele>1594.0</ele>
        <time>2013-05-26T14:14:24Z</time>
      </trkpt>
      <trkpt lat="42.719348" lon="0.661515">
        <ele>1592.1</ele>
        <time>2013-05-26T14:15:50Z</time>
      </trkpt>
      <trkpt lat="42.719246" lon="0.661505">
        <ele>1587.8</ele>
        <time>2013-05-26T14:16:25Z</time>
      </trkpt>
      <trkpt lat="42.719237" lon="0.661331">
        <ele>1579.6</ele>
        <time>2013-05-26T14:17:00Z</time>
      </trkpt>
      <trkpt lat="42.719084" lon="0.661259">
        <ele>1569.5</ele>
        <time>2013-05-26T14:18:08Z</time>
      </trkpt>
      <trkpt lat="42.719034" lon="0.661226">
        <ele>1557.0</ele>
        <time>2013-05-26T14:18:59Z</time>
      </trkpt>
      <trkpt lat="42.718840" lon="0.660931">
        <ele>1541.1</ele>
        <time>2013-05-26T14:19:59Z</time>
      </trkpt>
      <trkpt lat="42.718734" lon="0.660789">
        <ele>1531.5</ele>
        <time>2013-05-26T14:20:38Z</time>
      </trkpt>
      <trkpt lat="42.718633" lon="0.660561">
        <ele>1516.1</ele>
        <time>2013-05-26T14:21:28Z</time>
      </trkpt>
      <trkpt lat="42.718543" lon="0.660463">
        <ele>1506.5</ele>
        <time>2013-05-26T14:22:06Z</time>
      </trkpt>
      <trkpt lat="42.718520" lon="0.660150">
        <ele>1500.3</ele>
        <time>2013-05-26T14:23:09Z</time>
      </trkpt>
      <trkpt lat="42.718516" lon="0.659981">
        <ele>1495.9</ele>
        <time>2013-05-26T14:23:26Z</time>
      </trkpt>
      <trkpt lat="42.718508" lon="0.659857">
        <ele>1487.8</ele>
        <time>2013-05-26T14:23:49Z</time>
      </trkpt>
      <trkpt lat="42.718557" lon="0.659801">
        <ele>1483.4</ele>
        <time>2013-05-26T14:24:09Z</time>
      </trkpt>
      <trkpt lat="42.718500" lon="0.659624">
        <ele>1474.3</ele>
        <time>2013-05-26T14:24:32Z</time>
      </trkpt>
      <trkpt lat="42.718455" lon="0.659350">
        <ele>1467.1</ele>
        <time>2013-05-26T14:24:53Z</time>
      </trkpt>
      <trkpt lat="42.718380" lon="0.659219">
        <ele>1458.5</ele>
        <time>2013-05-26T14:25:15Z</time>
      </trkpt>
      <trkpt lat="42.718313" lon="0.659000">
        <ele>1452.2</ele>
        <time>2013-05-26T14:25:37Z</time>
      </trkpt>
      <trkpt lat="42.718305" lon="0.658844">
        <ele>1447.9</ele>
        <time>2013-05-26T14:25:51Z</time>
      </trkpt>
      <trkpt lat="42.718255" lon="0.658717">
        <ele>1444.0</ele>
        <time>2013-05-26T14:26:05Z</time>
      </trkpt>
      <trkpt lat="42.718299" lon="0.658558">
        <ele>1441.2</ele>
        <time>2013-05-26T14:26:25Z</time>
      </trkpt>
      <trkpt lat="42.718402" lon="0.658448">
        <ele>1438.8</ele>
        <time>2013-05-26T14:26:37Z</time>
      </trkpt>
      <trkpt lat="42.718532" lon="0.658408">
        <ele>1436.8</ele>
        <time>2013-05-26T14:26:48Z</time>
      </trkpt>
      <trkpt lat="42.718659" lon="0.658347">
        <ele>1434.9</ele>
        <time>2013-05-26T14:27:02Z</time>
      </trkpt>
      <trkpt lat="42.718736" lon="0.658337">
        <ele>1433.0</ele>
        <time>2013-05-26T14:27:29Z</time>
      </trkpt>
      <trkpt lat="42.718948" lon="0.658177">
        <ele>1431.5</ele>
        <time>2013-05-26T14:27:45Z</time>
      </trkpt>
      <trkpt lat="42.719094" lon="0.658082">
        <ele>1429.6</ele>
        <time>2013-05-26T14:27:59Z</time>
      </trkpt>
      <trkpt lat="42.719231" lon="0.657931">
        <ele>1425.8</ele>
        <time>2013-05-26T14:28:15Z</time>
      </trkpt>
      <trkpt lat="42.719394" lon="0.657782">
        <ele>1422.4</ele>
        <time>2013-05-26T14:28:34Z</time>
      </trkpt>
      <trkpt lat="42.719534" lon="0.657672">
        <ele>1418.1</ele>
        <time>2013-05-26T14:28:51Z</time>
      </trkpt>
      <trkpt lat="42.719729" lon="0.657515">
        <ele>1413.3</ele>
        <time>2013-05-26T14:29:12Z</time>
      </trkpt>
      <trkpt lat="42.719799" lon="0.657314">
        <ele>1411.3</ele>
        <time>2013-05-26T14:29:23Z</time>
      </trkpt>
      <trkpt lat="42.719840" lon="0.657113">
        <ele>1409.4</ele>
        <time>2013-05-26T14:29:33Z</time>
      </trkpt>
      <trkpt lat="42.719837" lon="0.656941">
        <ele>1408.9</ele>
        <time>2013-05-26T14:29:43Z</time>
      </trkpt>
      <trkpt lat="42.719884" lon="0.656794">
        <ele>1407.0</ele>
        <time>2013-05-26T14:29:51Z</time>
      </trkpt>
      <trkpt lat="42.719968" lon="0.656690">
        <ele>1405.6</ele>
        <time>2013-05-26T14:29:59Z</time>
      </trkpt>
      <trkpt lat="42.720059" lon="0.656578">
        <ele>1404.1</ele>
        <time>2013-05-26T14:30:08Z</time>
      </trkpt>
      <trkpt lat="42.720125" lon="0.656451">
        <ele>1402.7</ele>
        <time>2013-05-26T14:30:17Z</time>
      </trkpt>
      <trkpt lat="42.720190" lon="0.656340">
        <ele>1400.8</ele>
        <time>2013-05-26T14:30:26Z</time>
      </trkpt>
      <trkpt lat="42.720253" lon="0.656214">
        <ele>1398.9</ele>
        <time>2013-05-26T14:30:34Z</time>
      </trkpt>
      <trkpt lat="42.720308" lon="0.656093">
        <ele>1397.9</ele>
        <time>2013-05-26T14:30:42Z</time>
      </trkpt>
      <trkpt lat="42.720379" lon="0.655966">
        <ele>1396.9</ele>
        <time>2013-05-26T14:30:51Z</time>
      </trkpt>
      <trkpt lat="42.720432" lon="0.655834">
        <ele>1394.5</ele>
        <time>2013-05-26T14:30:59Z</time>
      </trkpt>
      <trkpt lat="42.720490" lon="0.655727">
        <ele>1393.6</ele>
        <time>2013-05-26T14:31:06Z</time>
      </trkpt>
      <trkpt lat="42.720591" lon="0.655651">
        <ele>1392.6</ele>
        <time>2013-05-26T14:31:16Z</time>
      </trkpt>
      <trkpt lat="42.720622" lon="0.655581">
        <ele>1392.1</ele>
        <time>2013-05-26T14:32:00Z</time>
      </trkpt>
      <trkpt lat="42.720688" lon="0.655464">
        <ele>1390.2</ele>
        <time>2013-05-26T14:32:24Z</time>
      </trkpt>
      <trkpt lat="42.720762" lon="0.655350">
        <ele>1389.2</ele>
        <time>2013-05-26T14:32:32Z</time>
      </trkpt>
      <trkpt lat="42.720826" lon="0.655246">
        <ele>1388.8</ele>
        <time>2013-05-26T14:32:40Z</time>
      </trkpt>
      <trkpt lat="42.720857" lon="0.655110">
        <ele>1389.7</ele>
        <time>2013-05-26T14:32:50Z</time>
      </trkpt>
      <trkpt lat="42.720905" lon="0.655036">
        <ele>1388.3</ele>
        <time>2013-05-26T14:33:12Z</time>
      </trkpt>
      <trkpt lat="42.721032" lon="0.654575">
        <ele>1388.3</ele>
        <time>2013-05-26T14:41:11Z</time>
      </trkpt>
      <trkpt lat="42.721072" lon="0.654458">
        <ele>1388.3</ele>
        <time>2013-05-26T14:41:20Z</time>
      </trkpt>
      <trkpt lat="42.721133" lon="0.654350">
        <ele>1385.9</ele>
        <time>2013-05-26T14:41:29Z</time>
      </trkpt>
      <trkpt lat="42.721214" lon="0.654261">
        <ele>1384.4</ele>
        <time>2013-05-26T14:41:38Z</time>
      </trkpt>
      <trkpt lat="42.721301" lon="0.654183">
        <ele>1383.0</ele>
        <time>2013-05-26T14:41:47Z</time>
      </trkpt>
      <trkpt lat="42.721378" lon="0.654096">
        <ele>1381.1</ele>
        <time>2013-05-26T14:41:56Z</time>
      </trkpt>
      <trkpt lat="42.721408" lon="0.653965">
        <ele>1379.2</ele>
        <time>2013-05-26T14:42:06Z</time>
      </trkpt>
      <trkpt lat="42.721391" lon="0.653930">
        <ele>1379.2</ele>
        <time>2013-05-26T14:43:44Z</time>
      </trkpt>
    </trkseg>
  </trk>
</gpx>

